Observation data for Sterling City on 05/17/2018      Previous  Date  Next       Current Mesonet Observations  Soil Data  Daily Summary Page  Observations in Plain Language
KSC1 170500Z 16002KT 19/14 A2997 RMK A01 T01910142  RH  073%=      5-min Rain = 0
KSC1 170501Z 16001KT 19/14 A2997 RMK A01 T01900143  RH  074%=      5-min Rain = 0
KSC1 170502Z 15001KT 19/14 A2997 RMK A01 T01890142  RH  074%=      5-min Rain = 0
KSC1 170503Z 11001KT 19/15 A2997 RMK A01 T01890145  RH  076%=      5-min Rain = 0
KSC1 170504Z 11002KT 19/14 A2997 RMK A01 T01880143  RH  075%=      5-min Rain = 0
KSC1 170505Z 11001KT 19/14 A2997 RMK A01 T01880141  RH  074%=      5-min Rain = 0
KSC1 170506Z 12001KT 19/14 A2997 RMK A01 T01880142  RH  075%=      5-min Rain = 0
KSC1 170507Z 12002KT 19/15 A2997 RMK A01 T01880146  RH  077%=      5-min Rain = 0
KSC1 170508Z 12002KT 19/15 A2997 RMK A01 T01870149  RH  078%=      5-min Rain = 0
KSC1 170509Z 12002KT 19/15 A2997 RMK A01 T01860146  RH  077%=      5-min Rain = 0
KSC1 170510Z 12001KT 19/15 A2997 RMK A01 T01860146  RH  078%=      5-min Rain = 0
KSC1 170511Z 12002KT 19/15 A2997 RMK A01 T01850146  RH  078%=      5-min Rain = 0
KSC1 170512Z 12002KT 19/15 A2997 RMK A01 T01850147  RH  079%=      5-min Rain = 0
KSC1 170513Z 12003KT 18/15 A2997 RMK A01 T01840145  RH  078%=      5-min Rain = 0
KSC1 170514Z 11002KT 18/15 A2997 RMK A01 T01840147  RH  079%=      5-min Rain = 0
KSC1 170515Z 11002KT 18/15 A2997 RMK A01 T01830151  RH  081%=      5-min Rain = 0
KSC1 170516Z 11002KT 18/15 A2997 RMK A01 T01830151  RH  082%=      5-min Rain = 0
KSC1 170517Z 10003KT 18/15 A2997 RMK A01 T01820148  RH  081%=      5-min Rain = 0
KSC1 170518Z 08003KT 18/15 A2997 RMK A01 T01820148  RH  081%=      5-min Rain = 0
KSC1 170519Z 07003KT 18/15 A2997 RMK A01 T01810151  RH  082%=      5-min Rain = 0
KSC1 170520Z 06003KT 18/15 A2997 RMK A01 T01810150  RH  082%=      5-min Rain = 0
KSC1 170521Z 05005KT 18/15 A2997 RMK A01 T01810149  RH  081%=      5-min Rain = 0
KSC1 170522Z 05005KT 18/15 A2997 RMK A01 T01810147  RH  080%=      5-min Rain = 0
KSC1 170523Z 05004KT 18/14 A2997 RMK A01 T01820143  RH  078%=      5-min Rain = 0
KSC1 170524Z 05004KT 18/14 A2997 RMK A01 T01840144  RH  078%=      5-min Rain = 0
KSC1 170525Z 05004KT 18/15 A2997 RMK A01 T01840145  RH  078%=      5-min Rain = 0
KSC1 170526Z 06003KT 19/15 A2996 RMK A01 T01850145  RH  077%=      5-min Rain = 0
KSC1 170527Z 06003KT 19/15 A2996 RMK A01 T01850145  RH  077%=      5-min Rain = 0
KSC1 170528Z 05003KT 19/15 A2996 RMK A01 T01850145  RH  077%=      5-min Rain = 0
KSC1 170529Z 06003KT 19/15 A2996 RMK A01 T01850145  RH  077%=      5-min Rain = 0
KSC1 170530Z 06002KT 19/15 A2996 RMK A01 T01850146  RH  078%=      5-min Rain = 0
KSC1 170531Z 06002KT 19/15 A2996 RMK A01 T01850146  RH  078%=      5-min Rain = 0
KSC1 170532Z 07001KT 18/15 A2996 RMK A01 T01840146  RH  078%=      5-min Rain = 0
KSC1 170533Z 09001KT 18/15 A2996 RMK A01 T01840147  RH  079%=      5-min Rain = 0
KSC1 170534Z 09001KT 18/15 A2996 RMK A01 T01830145  RH  079%=      5-min Rain = 0
KSC1 170535Z 09001KT 18/15 A2996 RMK A01 T01820145  RH  079%=      5-min Rain = 0
KSC1 170536Z 09001KT 18/15 A2996 RMK A01 T01820145  RH  079%=      5-min Rain = 0
KSC1 170537Z 10001KT 18/15 A2996 RMK A01 T01810146  RH  080%=      5-min Rain = 0
KSC1 170538Z 12002KT 18/15 A2996 RMK A01 T01810147  RH  081%=      5-min Rain = 0
KSC1 170539Z 13002KT 18/15 A2996 RMK A01 T01800148  RH  081%=      5-min Rain = 0
KSC1 170540Z 15003KT 18/15 A2996 RMK A01 T01800147  RH  081%=      5-min Rain = 0
KSC1 170541Z 15003KT 18/15 A2996 RMK A01 T01800146  RH  081%=      5-min Rain = 0
KSC1 170542Z 16003KT 18/15 A2996 RMK A01 T01810146  RH  080%=      5-min Rain = 0
KSC1 170543Z 15003KT 18/15 A2996 RMK A01 T01810145  RH  079%=      5-min Rain = 0
KSC1 170544Z 15003KT 18/14 A2996 RMK A01 T01820144  RH  079%=      5-min Rain = 0
KSC1 170545Z 15002KT 18/14 A2996 RMK A01 T01820143  RH  078%=      5-min Rain = 0
KSC1 170546Z 15002KT 18/14 A2996 RMK A01 T01830142  RH  077%=      5-min Rain = 0
KSC1 170547Z 14002KT 18/14 A2996 RMK A01 T01830141  RH  076%=      5-min Rain = 0
KSC1 170548Z 15002KT 18/14 A2996 RMK A01 T01840141  RH  076%=      5-min Rain = 0
KSC1 170549Z 15003KT 18/14 A2996 RMK A01 T01840141  RH  076%=      5-min Rain = 0
KSC1 170550Z 16003KT 18/14 A2996 RMK A01 T01840139  RH  075%=      5-min Rain = 0
KSC1 170551Z 16003KT 19/14 A2996 RMK A01 T01850138  RH  074%=      5-min Rain = 0
KSC1 170552Z 16003KT 19/14 A2995 RMK A01 T01860138  RH  074%=      5-min Rain = 0
KSC1 170553Z 15003KT 19/14 A2995 RMK A01 T01860139  RH  074%=      5-min Rain = 0
KSC1 170554Z 14003KT 19/14 A2995 RMK A01 T01870139  RH  074%=      5-min Rain = 0
KSC1 170555Z 13003KT 19/14 A2995 RMK A01 T01870139  RH  074%=      5-min Rain = 0
KSC1 170556Z 13003KT 19/14 A2995 RMK A01 T01870140  RH  074%=      5-min Rain = 0
KSC1 170557Z 14003KT 19/14 A2995 RMK A01 T01870142  RH  075%=      5-min Rain = 0
KSC1 170558Z 14002KT 19/14 A2996 RMK A01 T01870143  RH  075%=      5-min Rain = 0
KSC1 170559Z 14002KT 19/14 A2996 RMK A01 T01870142  RH  075%=      5-min Rain = 0
KSC1 170600Z 14002KT 19/14 A2996 RMK A01 T01860140  RH  074%=      5-min Rain = 0
KSC1 170601Z 14002KT 19/14 A2996 RMK A01 T01860139  RH  074%=      5-min Rain = 0
KSC1 170602Z 14002KT 19/14 A2996 RMK A01 T01850137  RH  073%=      5-min Rain = 0
KSC1 170603Z 14002KT 19/14 A2996 RMK A01 T01860137  RH  074%=      5-min Rain = 0
KSC1 170604Z 13001KT 19/14 A2996 RMK A01 T01860138  RH  074%=      5-min Rain = 0
KSC1 170605Z 12002KT 19/14 A2996 RMK A01 T01850138  RH  074%=      5-min Rain = 0
KSC1 170606Z 10002KT 18/14 A2996 RMK A01 T01840137  RH  074%=      5-min Rain = 0
KSC1 170607Z 09002KT 18/14 A2996 RMK A01 T01840141  RH  076%=      5-min Rain = 0
KSC1 170608Z 08002KT 18/15 A2996 RMK A01 T01840146  RH  078%=      5-min Rain = 0
KSC1 170609Z 07002KT 18/14 A2995 RMK A01 T01830143  RH  077%=      5-min Rain = 0
KSC1 170610Z 06003KT 18/14 A2995 RMK A01 T01820141  RH  077%=      5-min Rain = 0
KSC1 170611Z 07004KT 18/14 A2995 RMK A01 T01820135  RH  074%=      5-min Rain = 0
KSC1 170612Z 08004KT 18/13 A2995 RMK A01 T01820134  RH  074%=      5-min Rain = 0
KSC1 170613Z 09004KT 18/14 A2995 RMK A01 T01820140  RH  076%=      5-min Rain = 0
KSC1 170614Z 09004KT 18/15 A2995 RMK A01 T01830147  RH  079%=      5-min Rain = 0
KSC1 170615Z 09005KT 18/14 A2995 RMK A01 T01820144  RH  078%=      5-min Rain = 0
KSC1 170616Z 10005KT 18/14 A2995 RMK A01 T01820142  RH  077%=      5-min Rain = 0
KSC1 170617Z 10005KT 18/14 A2996 RMK A01 T01820140  RH  076%=      5-min Rain = 0
KSC1 170618Z 10006KT 18/14 A2996 RMK A01 T01840139  RH  075%=      5-min Rain = 0
KSC1 170619Z 10006KT 19/14 A2995 RMK A01 T01850139  RH  074%=      5-min Rain = 0
KSC1 170620Z 10005KT 19/14 A2996 RMK A01 T01860140  RH  074%=      5-min Rain = 0
KSC1 170621Z 10005KT 19/14 A2996 RMK A01 T01860140  RH  074%=      5-min Rain = 0
KSC1 170622Z 10005KT 19/14 A2996 RMK A01 T01860140  RH  074%=      5-min Rain = 0
KSC1 170623Z 09005KT 19/14 A2996 RMK A01 T01870140  RH  074%=      5-min Rain = 0
KSC1 170624Z 09004KT 19/14 A2996 RMK A01 T01860140  RH  075%=      5-min Rain = 0
KSC1 170625Z 10004KT 19/14 A2996 RMK A01 T01860140  RH  075%=      5-min Rain = 0
KSC1 170626Z 10004KT 19/14 A2996 RMK A01 T01860140  RH  074%=      5-min Rain = 0
KSC1 170627Z 10004KT 19/14 A2996 RMK A01 T01860139  RH  074%=      5-min Rain = 0
KSC1 170628Z 10003KT 19/14 A2996 RMK A01 T01860139  RH  074%=      5-min Rain = 0
KSC1 170629Z 11004KT 19/14 A2996 RMK A01 T01870137  RH  073%=      5-min Rain = 0
KSC1 170630Z 11004KT 19/14 A2996 RMK A01 T01870137  RH  072%=      5-min Rain = 0
KSC1 170631Z 11005KT 19/14 A2996 RMK A01 T01880137  RH  072%=      5-min Rain = 0
KSC1 170632Z 13005KT 19/14 A2996 RMK A01 T01880136  RH  071%=      5-min Rain = 0
KSC1 170633Z 13006KT 19/13 A2996 RMK A01 T01890134  RH  070%=      5-min Rain = 0
KSC1 170634Z 13006KT 19/14 A2996 RMK A01 T01910135  RH  070%=      5-min Rain = 0
KSC1 170635Z 13005KT 19/13 A2996 RMK A01 T01920134  RH  069%=      5-min Rain = 0
KSC1 170636Z 12006KT 19/14 A2995 RMK A01 T01940135  RH  069%=      5-min Rain = 0
KSC1 170637Z 12006KT 20/13 A2995 RMK A01 T01950134  RH  068%=      5-min Rain = 0
KSC1 170638Z 13007KT 20/13 A2995 RMK A01 T01970133  RH  067%=      5-min Rain = 0
KSC1 170639Z 12006KT 20/13 A2995 RMK A01 T01990133  RH  065%=      5-min Rain = 0
KSC1 170640Z 12007KT 20/13 A2996 RMK A01 T02010133  RH  065%=      5-min Rain = 0
KSC1 170641Z 12006KT 20/13 A2995 RMK A01 T02030133  RH  064%=      5-min Rain = 0
KSC1 170642Z 12006KT 20/13 A2995 RMK A01 T02030132  RH  064%=      5-min Rain = 0
KSC1 170643Z 12005KT 20/13 A2995 RMK A01 T02040131  RH  063%=      5-min Rain = 0
KSC1 170644Z 11005KT 21/13 A2995 RMK A01 T02050131  RH  063%=      5-min Rain = 0
KSC1 170645Z 11007KT 21/13 A2995 RMK A01 T02060131  RH  062%=      5-min Rain = 0
KSC1 170646Z 11007KT 21/13 A2995 RMK A01 T02060129  RH  061%=      5-min Rain = 0
KSC1 170647Z 11007KT 21/13 A2995 RMK A01 T02080128  RH  060%=      5-min Rain = 0
KSC1 170648Z 11008KT 21/13 A2995 RMK A01 T02090129  RH  060%=      5-min Rain = 0
KSC1 170649Z 11007KT 21/13 A2995 RMK A01 T02090127  RH  059%=      5-min Rain = 0
KSC1 170650Z 11008KT 21/13 A2995 RMK A01 T02100128  RH  059%=      5-min Rain = 0
KSC1 170651Z 11007KT 21/13 A2995 RMK A01 T02100128  RH  059%=      5-min Rain = 0
KSC1 170652Z 12007KT 21/13 A2995 RMK A01 T02100128  RH  059%=      5-min Rain = 0
KSC1 170653Z 12006KT 21/13 A2995 RMK A01 T02100127  RH  059%=      5-min Rain = 0
KSC1 170654Z 11007KT 21/13 A2995 RMK A01 T02100127  RH  059%=      5-min Rain = 0
KSC1 170655Z 12008KT 21/13 A2995 RMK A01 T02100126  RH  058%=      5-min Rain = 0
KSC1 170656Z 12009KT 21/13 A2995 RMK A01 T02110125  RH  058%=      5-min Rain = 0
KSC1 170657Z 12008KT 21/13 A2995 RMK A01 T02120125  RH  058%=      5-min Rain = 0
KSC1 170658Z 12007KT 21/13 A2995 RMK A01 T02120126  RH  058%=      5-min Rain = 0
KSC1 170659Z 12006KT 21/13 A2995 RMK A01 T02120126  RH  058%=      5-min Rain = 0
KSC1 170700Z 12006KT 21/13 A2995 RMK A01 T02120127  RH  058%=      5-min Rain = 0
KSC1 170701Z 11006KT 21/13 A2995 RMK A01 T02110127  RH  059%=      5-min Rain = 0
KSC1 170702Z 11006KT 21/13 A2995 RMK A01 T02100127  RH  059%=      5-min Rain = 0
KSC1 170703Z 11007KT 21/13 A2995 RMK A01 T02090127  RH  059%=      5-min Rain = 0
KSC1 170704Z 11007KT 21/13 A2995 RMK A01 T02090127  RH  059%=      5-min Rain = 0
KSC1 170705Z 11006KT 21/13 A2995 RMK A01 T02090127  RH  060%=      5-min Rain = 0
KSC1 170706Z 10006KT 21/13 A2995 RMK A01 T02080128  RH  060%=      5-min Rain = 0
KSC1 170707Z 10007KT 21/13 A2995 RMK A01 T02080127  RH  060%=      5-min Rain = 0
KSC1 170708Z 11008KT 21/13 A2995 RMK A01 T02080127  RH  060%=      5-min Rain = 0
KSC1 170709Z 11007KT 21/13 A2995 RMK A01 T02080126  RH  059%=      5-min Rain = 0
KSC1 170710Z 11006KT 21/13 A2995 RMK A01 T02080128  RH  060%=      5-min Rain = 0
KSC1 170711Z 11006KT 21/13 A2995 RMK A01 T02080128  RH  060%=      5-min Rain = 0
KSC1 170712Z 11006KT 21/13 A2995 RMK A01 T02070128  RH  060%=      5-min Rain = 0
KSC1 170713Z 11005KT 21/13 A2995 RMK A01 T02070128  RH  061%=      5-min Rain = 0
KSC1 170714Z 11005KT 21/13 A2995 RMK A01 T02060128  RH  061%=      5-min Rain = 0
KSC1 170715Z 11005KT 21/13 A2995 RMK A01 T02050129  RH  061%=      5-min Rain = 0
KSC1 170716Z 11005KT 20/13 A2995 RMK A01 T02040129  RH  062%=      5-min Rain = 0
KSC1 170717Z 11004KT 20/13 A2995 RMK A01 T02030129  RH  062%=      5-min Rain = 0
KSC1 170718Z 10005KT 20/13 A2995 RMK A01 T02020129  RH  063%=      5-min Rain = 0
KSC1 170719Z 10005KT 20/13 A2995 RMK A01 T02020129  RH  063%=      5-min Rain = 0
KSC1 170720Z 11005KT 20/13 A2995 RMK A01 T02010130  RH  064%=      5-min Rain = 0
KSC1 170721Z 10004KT 20/13 A2995 RMK A01 T02000130  RH  064%=      5-min Rain = 0
KSC1 170722Z 10004KT 20/13 A2995 RMK A01 T01990130  RH  064%=      5-min Rain = 0
KSC1 170723Z 10005KT 20/13 A2995 RMK A01 T01980130  RH  065%=      5-min Rain = 0
KSC1 170724Z 10005KT 20/13 A2995 RMK A01 T01970130  RH  065%=      5-min Rain = 0
KSC1 170725Z 10005KT 20/13 A2995 RMK A01 T01960131  RH  066%=      5-min Rain = 0
KSC1 170726Z 10005KT 20/13 A2995 RMK A01 T01950131  RH  066%=      5-min Rain = 0
KSC1 170727Z 10006KT 20/13 A2995 RMK A01 T01950131  RH  066%=      5-min Rain = 0
KSC1 170728Z 10006KT 20/13 A2995 RMK A01 T01950131  RH  066%=      5-min Rain = 0
KSC1 170729Z 10006KT 19/13 A2995 RMK A01 T01940130  RH  066%=      5-min Rain = 0
KSC1 170730Z 09006KT 20/13 A2995 RMK A01 T01950130  RH  066%=      5-min Rain = 0
KSC1 170731Z 10006KT 20/13 A2995 RMK A01 T01950130  RH  066%=      5-min Rain = 0
KSC1 170732Z 10006KT 20/13 A2995 RMK A01 T01950130  RH  066%=      5-min Rain = 0
KSC1 170733Z 11005KT 20/13 A2995 RMK A01 T01960131  RH  066%=      5-min Rain = 0
KSC1 170734Z 11006KT 20/13 A2995 RMK A01 T01950132  RH  067%=      5-min Rain = 0
KSC1 170735Z 12005KT 19/13 A2995 RMK A01 T01940131  RH  067%=      5-min Rain = 0
KSC1 170736Z 12005KT 19/13 A2995 RMK A01 T01940131  RH  067%=      5-min Rain = 0
KSC1 170737Z 12005KT 19/13 A2995 RMK A01 T01940131  RH  067%=      5-min Rain = 0
KSC1 170738Z 11005KT 19/13 A2995 RMK A01 T01930131  RH  067%=      5-min Rain = 0
KSC1 170739Z 11005KT 19/13 A2995 RMK A01 T01920132  RH  068%=      5-min Rain = 0
KSC1 170740Z 11006KT 19/13 A2995 RMK A01 T01920132  RH  068%=      5-min Rain = 0
KSC1 170741Z 11005KT 19/13 A2995 RMK A01 T01910132  RH  068%=      5-min Rain = 0
KSC1 170742Z 11005KT 19/13 A2995 RMK A01 T01900132  RH  069%=      5-min Rain = 0
KSC1 170743Z 11005KT 19/13 A2995 RMK A01 T01900132  RH  069%=      5-min Rain = 0
KSC1 170744Z 11005KT 19/13 A2994 RMK A01 T01890132  RH  069%=      5-min Rain = 0
KSC1 170745Z 11004KT 19/13 A2994 RMK A01 T01890132  RH  070%=      5-min Rain = 0
KSC1 170746Z 11005KT 19/13 A2994 RMK A01 T01890132  RH  070%=      5-min Rain = 0
KSC1 170747Z 11005KT 19/13 A2994 RMK A01 T01890132  RH  069%=      5-min Rain = 0
KSC1 170748Z 11005KT 19/13 A2994 RMK A01 T01890132  RH  069%=      5-min Rain = 0
KSC1 170749Z 11005KT 19/13 A2994 RMK A01 T01890132  RH  069%=      5-min Rain = 0
KSC1 170750Z 11005KT 19/13 A2994 RMK A01 T01890132  RH  069%=      5-min Rain = 0
KSC1 170751Z 10005KT 19/13 A2994 RMK A01 T01890132  RH  069%=      5-min Rain = 0
KSC1 170752Z 10005KT 19/13 A2994 RMK A01 T01900132  RH  069%=      5-min Rain = 0
KSC1 170753Z 11005KT 19/13 A2994 RMK A01 T01900132  RH  069%=      5-min Rain = 0
KSC1 170754Z 11004KT 19/13 A2994 RMK A01 T01900132  RH  069%=      5-min Rain = 0
KSC1 170755Z 11004KT 19/13 A2994 RMK A01 T01900133  RH  069%=      5-min Rain = 0
KSC1 170756Z 12004KT 19/13 A2994 RMK A01 T01900133  RH  069%=      5-min Rain = 0
KSC1 170757Z 12004KT 19/13 A2994 RMK A01 T01900132  RH  069%=      5-min Rain = 0
KSC1 170758Z 12004KT 19/13 A2994 RMK A01 T01900132  RH  069%=      5-min Rain = 0
KSC1 170759Z 12004KT 19/13 A2994 RMK A01 T01890132  RH  069%=      5-min Rain = 0
KSC1 170800Z 12005KT 19/13 A2994 RMK A01 T01890133  RH  070%=      5-min Rain = 0
KSC1 170801Z 12005KT 19/13 A2994 RMK A01 T01890133  RH  070%=      5-min Rain = 0
KSC1 170802Z 12005KT 19/13 A2994 RMK A01 T01890133  RH  070%=      5-min Rain = 0
KSC1 170803Z 12005KT 19/13 A2994 RMK A01 T01880133  RH  070%=      5-min Rain = 0
KSC1 170804Z 11005KT 19/13 A2994 RMK A01 T01870133  RH  071%=      5-min Rain = 0
KSC1 170805Z 11005KT 19/13 A2993 RMK A01 T01880133  RH  071%=      5-min Rain = 0
KSC1 170806Z 11005KT 19/13 A2993 RMK A01 T01870134  RH  071%=      5-min Rain = 0
KSC1 170807Z 11005KT 19/13 A2993 RMK A01 T01870134  RH  071%=      5-min Rain = 0
KSC1 170808Z 11005KT 19/13 A2993 RMK A01 T01860134  RH  071%=      5-min Rain = 0
KSC1 170809Z 11005KT 19/13 A2993 RMK A01 T01860134  RH  072%=      5-min Rain = 0
KSC1 170810Z 12004KT 19/13 A2993 RMK A01 T01860134  RH  072%=      5-min Rain = 0
KSC1 170811Z 12004KT 19/13 A2993 RMK A01 T01850134  RH  072%=      5-min Rain = 0
KSC1 170812Z 12004KT 19/14 A2993 RMK A01 T01850135  RH  072%=      5-min Rain = 0
KSC1 170813Z 12004KT 19/14 A2993 RMK A01 T01850135  RH  073%=      5-min Rain = 0
KSC1 170814Z 12004KT 19/14 A2993 RMK A01 T01850135  RH  073%=      5-min Rain = 0
KSC1 170815Z 12004KT 18/13 A2993 RMK A01 T01840134  RH  073%=      5-min Rain = 0
KSC1 170816Z 12004KT 18/13 A2993 RMK A01 T01840134  RH  072%=      5-min Rain = 0
KSC1 170817Z 12004KT 19/13 A2993 RMK A01 T01850134  RH  072%=      5-min Rain = 0
KSC1 170818Z 12004KT 19/13 A2993 RMK A01 T01850133  RH  072%=      5-min Rain = 0
KSC1 170819Z 12004KT 19/13 A2993 RMK A01 T01850133  RH  072%=      5-min Rain = 0
KSC1 170820Z 13003KT 19/13 A2993 RMK A01 T01850134  RH  072%=      5-min Rain = 0
KSC1 170821Z 12003KT 19/13 A2993 RMK A01 T01850133  RH  072%=      5-min Rain = 0
KSC1 170822Z 13003KT 19/13 A2993 RMK A01 T01850134  RH  072%=      5-min Rain = 0
KSC1 170823Z 12004KT 19/13 A2993 RMK A01 T01850134  RH  072%=      5-min Rain = 0
KSC1 170824Z 12004KT 19/14 A2993 RMK A01 T01850135  RH  072%=      5-min Rain = 0
KSC1 170825Z 12003KT 18/14 A2993 RMK A01 T01840135  RH  073%=      5-min Rain = 0
KSC1 170826Z 11003KT 18/13 A2993 RMK A01 T01840134  RH  073%=      5-min Rain = 0
KSC1 170827Z 10003KT 18/13 A2993 RMK A01 T01840134  RH  073%=      5-min Rain = 0
KSC1 170828Z 10003KT 18/14 A2993 RMK A01 T01830135  RH  073%=      5-min Rain = 0
KSC1 170829Z 10003KT 18/14 A2993 RMK A01 T01830135  RH  074%=      5-min Rain = 0
KSC1 170830Z 10003KT 18/14 A2993 RMK A01 T01830135  RH  074%=      5-min Rain = 0
KSC1 170831Z 09003KT 18/14 A2992 RMK A01 T01830137  RH  074%=      5-min Rain = 0
KSC1 170832Z 09002KT 18/14 A2992 RMK A01 T01820137  RH  075%=      5-min Rain = 0
KSC1 170833Z 08002KT 18/14 A2993 RMK A01 T01810136  RH  075%=      5-min Rain = 0
KSC1 170834Z 07001KT 18/14 A2992 RMK A01 T01800136  RH  075%=      5-min Rain = 0
KSC1 170835Z 06001KT 18/14 A2993 RMK A01 T01790137  RH  076%=      5-min Rain = 0
KSC1 170836Z 06002KT 18/14 A2993 RMK A01 T01790138  RH  077%=      5-min Rain = 0
KSC1 170837Z 06002KT 18/14 A2993 RMK A01 T01780138  RH  077%=      5-min Rain = 0
KSC1 170838Z 06002KT 18/14 A2993 RMK A01 T01770138  RH  078%=      5-min Rain = 0
KSC1 170839Z 06002KT 18/14 A2993 RMK A01 T01770138  RH  078%=      5-min Rain = 0
KSC1 170840Z 06002KT 18/14 A2993 RMK A01 T01760138  RH  078%=      5-min Rain = 0
KSC1 170841Z 07002KT 18/14 A2993 RMK A01 T01760139  RH  078%=      5-min Rain = 0
KSC1 170842Z 08002KT 18/14 A2993 RMK A01 T01760138  RH  079%=      5-min Rain = 0
KSC1 170843Z 08003KT 18/14 A2993 RMK A01 T01760139  RH  079%=      5-min Rain = 0
KSC1 170844Z 09003KT 18/14 A2993 RMK A01 T01750139  RH  079%=      5-min Rain = 0
KSC1 170845Z 09004KT 18/14 A2993 RMK A01 T01750139  RH  079%=      5-min Rain = 0
KSC1 170846Z 10004KT 18/14 A2992 RMK A01 T01750139  RH  080%=      5-min Rain = 0
KSC1 170847Z 10004KT 17/14 A2992 RMK A01 T01740139  RH  080%=      5-min Rain = 0
KSC1 170848Z 10004KT 17/14 A2992 RMK A01 T01740139  RH  080%=      5-min Rain = 0
KSC1 170849Z 10004KT 17/14 A2992 RMK A01 T01740139  RH  080%=      5-min Rain = 0
KSC1 170850Z 10004KT 17/14 A2992 RMK A01 T01730139  RH  081%=      5-min Rain = 0
KSC1 170851Z 10004KT 17/14 A2992 RMK A01 T01720140  RH  081%=      5-min Rain = 0
KSC1 170852Z 09004KT 17/14 A2992 RMK A01 T01710139  RH  081%=      5-min Rain = 0
KSC1 170853Z 09004KT 17/14 A2993 RMK A01 T01710138  RH  081%=      5-min Rain = 0
KSC1 170854Z 09004KT 17/14 A2993 RMK A01 T01710136  RH  080%=      5-min Rain = 0
KSC1 170855Z 09004KT 17/14 A2993 RMK A01 T01720136  RH  079%=      5-min Rain = 0
KSC1 170856Z 09004KT 17/14 A2993 RMK A01 T01740136  RH  078%=      5-min Rain = 0
KSC1 170857Z 09004KT 18/14 A2993 RMK A01 T01750135  RH  077%=      5-min Rain = 0
KSC1 170858Z 09004KT 18/14 A2993 RMK A01 T01770135  RH  076%=      5-min Rain = 0
KSC1 170859Z 10004KT 18/14 A2993 RMK A01 T01780135  RH  076%=      5-min Rain = 0
KSC1 170900Z 10003KT 18/14 A2993 RMK A01 T01780136  RH  076%=      5-min Rain = 0
KSC1 170901Z 11003KT 18/14 A2993 RMK A01 T01790137  RH  076%=      5-min Rain = 0
KSC1 170902Z 11003KT 18/14 A2993 RMK A01 T01780136  RH  076%=      5-min Rain = 0
KSC1 170903Z 12003KT 18/14 A2993 RMK A01 T01780136  RH  076%=      5-min Rain = 0
KSC1 170904Z 11004KT 18/14 A2993 RMK A01 T01780135  RH  076%=      5-min Rain = 0
KSC1 170905Z 11004KT 18/14 A2993 RMK A01 T01780136  RH  076%=      5-min Rain = 0
KSC1 170906Z 10004KT 18/14 A2993 RMK A01 T01780136  RH  077%=      5-min Rain = 0
KSC1 170907Z 10003KT 18/14 A2993 RMK A01 T01770135  RH  076%=      5-min Rain = 0
KSC1 170908Z 10004KT 18/14 A2993 RMK A01 T01770135  RH  076%=      5-min Rain = 0
KSC1 170909Z 10004KT 18/14 A2993 RMK A01 T01770135  RH  076%=      5-min Rain = 0
KSC1 170910Z 10004KT 18/14 A2993 RMK A01 T01780135  RH  076%=      5-min Rain = 0
KSC1 170911Z 10005KT 18/14 A2992 RMK A01 T01780135  RH  076%=      5-min Rain = 0
KSC1 170912Z 10005KT 18/14 A2992 RMK A01 T01780136  RH  076%=      5-min Rain = 0
KSC1 170913Z 09004KT 18/14 A2992 RMK A01 T01780136  RH  076%=      5-min Rain = 0
KSC1 170914Z 09004KT 18/14 A2992 RMK A01 T01770136  RH  077%=      5-min Rain = 0
KSC1 170915Z 09003KT 18/14 A2992 RMK A01 T01780136  RH  076%=      5-min Rain = 0
KSC1 170916Z 08002KT 18/14 A2992 RMK A01 T01780135  RH  076%=      5-min Rain = 0
KSC1 170917Z 06002KT 18/14 A2993 RMK A01 T01780135  RH  076%=      5-min Rain = 0
KSC1 170918Z 06002KT 18/14 A2993 RMK A01 T01780136  RH  077%=      5-min Rain = 0
KSC1 170919Z 07002KT 18/14 A2993 RMK A01 T01770137  RH  077%=      5-min Rain = 0
KSC1 170920Z 07002KT 18/14 A2993 RMK A01 T01770137  RH  077%=      5-min Rain = 0
KSC1 170921Z 07002KT 18/14 A2993 RMK A01 T01770137  RH  077%=      5-min Rain = 0
KSC1 170922Z 07002KT 18/14 A2992 RMK A01 T01770137  RH  077%=      5-min Rain = 0
KSC1 170923Z 08002KT 18/14 A2992 RMK A01 T01770137  RH  077%=      5-min Rain = 0
KSC1 170924Z 08003KT 18/14 A2992 RMK A01 T01760137  RH  078%=      5-min Rain = 0
KSC1 170925Z 09003KT 18/14 A2992 RMK A01 T01760136  RH  077%=      5-min Rain = 0
KSC1 170926Z 09003KT 18/14 A2992 RMK A01 T01760136  RH  077%=      5-min Rain = 0
KSC1 170927Z 10004KT 18/14 A2992 RMK A01 T01760136  RH  077%=      5-min Rain = 0
KSC1 170928Z 12004KT 18/14 A2992 RMK A01 T01760135  RH  077%=      5-min Rain = 0
KSC1 170929Z 12004KT 18/14 A2992 RMK A01 T01760136  RH  077%=      5-min Rain = 0
KSC1 170930Z 13004KT 18/14 A2992 RMK A01 T01760135  RH  077%=      5-min Rain = 0
KSC1 170931Z 12004KT 18/13 A2992 RMK A01 T01760134  RH  076%=      5-min Rain = 0
KSC1 170932Z 12004KT 18/13 A2992 RMK A01 T01760133  RH  076%=      5-min Rain = 0
KSC1 170933Z 11005KT 18/13 A2992 RMK A01 T01780133  RH  075%=      5-min Rain = 0
KSC1 170934Z 11005KT 18/13 A2992 RMK A01 T01790133  RH  074%=      5-min Rain = 0
KSC1 170935Z 12005KT 18/13 A2992 RMK A01 T01800133  RH  074%=      5-min Rain = 0
KSC1 170936Z 12004KT 18/13 A2992 RMK A01 T01800133  RH  074%=      5-min Rain = 0
KSC1 170937Z 12004KT 18/13 A2992 RMK A01 T01810133  RH  073%=      5-min Rain = 0
KSC1 170938Z 12005KT 18/13 A2992 RMK A01 T01810132  RH  073%=      5-min Rain = 0
KSC1 170939Z 12005KT 18/13 A2992 RMK A01 T01820132  RH  073%=      5-min Rain = 0
KSC1 170940Z 12005KT 18/13 A2992 RMK A01 T01820131  RH  072%=      5-min Rain = 0
KSC1 170941Z 12005KT 18/13 A2992 RMK A01 T01830132  RH  072%=      5-min Rain = 0
KSC1 170942Z 12004KT 18/13 A2992 RMK A01 T01830132  RH  072%=      5-min Rain = 0
KSC1 170943Z 13004KT 18/13 A2992 RMK A01 T01830132  RH  072%=      5-min Rain = 0
KSC1 170944Z 13003KT 18/13 A2992 RMK A01 T01830130  RH  071%=      5-min Rain = 0
KSC1 170945Z 13002KT 18/13 A2992 RMK A01 T01830131  RH  071%=      5-min Rain = 0
KSC1 170946Z 13003KT 18/13 A2992 RMK A01 T01830131  RH  071%=      5-min Rain = 0
KSC1 170947Z 12002KT 18/13 A2992 RMK A01 T01830131  RH  071%=      5-min Rain = 0
KSC1 170948Z 13002KT 18/13 A2993 RMK A01 T01840131  RH  071%=      5-min Rain = 0
KSC1 170949Z 13002KT 18/13 A2993 RMK A01 T01830131  RH  072%=      5-min Rain = 0
KSC1 170950Z 13002KT 18/13 A2993 RMK A01 T01820132  RH  072%=      5-min Rain = 0
KSC1 170951Z 13002KT 18/13 A2993 RMK A01 T01820134  RH  074%=      5-min Rain = 0
KSC1 170952Z 13002KT 18/14 A2993 RMK A01 T01800135  RH  075%=      5-min Rain = 0
KSC1 170953Z 13002KT 18/13 A2993 RMK A01 T01780132  RH  074%=      5-min Rain = 0
KSC1 170954Z 13002KT 18/13 A2993 RMK A01 T01780132  RH  074%=      5-min Rain = 0
KSC1 170955Z 14003KT 18/13 A2993 RMK A01 T01770132  RH  075%=      5-min Rain = 0
KSC1 170956Z 13004KT 18/13 A2993 RMK A01 T01770132  RH  075%=      5-min Rain = 0
KSC1 170957Z 13004KT 18/13 A2993 RMK A01 T01770132  RH  075%=      5-min Rain = 0
KSC1 170958Z 12005KT 18/13 A2992 RMK A01 T01770132  RH  075%=      5-min Rain = 0
KSC1 170959Z 12005KT 18/13 A2992 RMK A01 T01770132  RH  075%=      5-min Rain = 0
KSC1 171000Z 13004KT 18/13 A2992 RMK A01 T01770132  RH  075%=      5-min Rain = 0
KSC1 171001Z 13003KT 18/13 A2993 RMK A01 T01760132  RH  075%=      5-min Rain = 0
KSC1 171002Z 13003KT 18/13 A2993 RMK A01 T01760131  RH  075%=      5-min Rain = 0
KSC1 171003Z 13003KT 18/13 A2993 RMK A01 T01760131  RH  075%=      5-min Rain = 0
KSC1 171004Z 13003KT 18/13 A2993 RMK A01 T01760132  RH  075%=      5-min Rain = 0
KSC1 171005Z 13003KT 18/13 A2993 RMK A01 T01760131  RH  075%=      5-min Rain = 0
KSC1 171006Z 13003KT 18/13 A2993 RMK A01 T01760131  RH  075%=      5-min Rain = 0
KSC1 171007Z 13003KT 18/13 A2993 RMK A01 T01760130  RH  074%=      5-min Rain = 0
KSC1 171008Z 13003KT 18/13 A2993 RMK A01 T01770130  RH  074%=      5-min Rain = 0
KSC1 171009Z 12003KT 18/13 A2993 RMK A01 T01780130  RH  074%=      5-min Rain = 0
KSC1 171010Z 12003KT 18/13 A2993 RMK A01 T01770130  RH  074%=      5-min Rain = 0
KSC1 171011Z 11003KT 18/13 A2993 RMK A01 T01780131  RH  074%=      5-min Rain = 0
KSC1 171012Z 11003KT 18/13 A2993 RMK A01 T01770131  RH  074%=      5-min Rain = 0
KSC1 171013Z 09003KT 18/13 A2993 RMK A01 T01770133  RH  075%=      5-min Rain = 0
KSC1 171014Z 09002KT 18/14 A2993 RMK A01 T01760135  RH  077%=      5-min Rain = 0
KSC1 171015Z 06002KT 17/13 A2993 RMK A01 T01740134  RH  077%=      5-min Rain = 0
KSC1 171016Z 05002KT 17/13 A2993 RMK A01 T01730134  RH  077%=      5-min Rain = 0
KSC1 171017Z 04001KT 17/14 A2993 RMK A01 T01720135  RH  078%=      5-min Rain = 0
KSC1 171018Z 05002KT 17/14 A2993 RMK A01 T01710136  RH  080%=      5-min Rain = 0
KSC1 171019Z 05002KT 17/14 A2993 RMK A01 T01700136  RH  080%=      5-min Rain = 0
KSC1 171020Z 05002KT 17/14 A2993 RMK A01 T01690136  RH  081%=      5-min Rain = 0
KSC1 171021Z 05002KT 17/14 A2993 RMK A01 T01690137  RH  081%=      5-min Rain = 0
KSC1 171022Z 05003KT 17/14 A2993 RMK A01 T01680137  RH  082%=      5-min Rain = 0
KSC1 171023Z 05002KT 17/14 A2993 RMK A01 T01680137  RH  082%=      5-min Rain = 0
KSC1 171024Z 05003KT 17/14 A2993 RMK A01 T01670138  RH  083%=      5-min Rain = 0
KSC1 171025Z 05003KT 17/14 A2993 RMK A01 T01670138  RH  083%=      5-min Rain = 0
KSC1 171026Z 05003KT 17/14 A2993 RMK A01 T01660138  RH  084%=      5-min Rain = 0
KSC1 171027Z 05003KT 17/14 A2993 RMK A01 T01660138  RH  084%=      5-min Rain = 0
KSC1 171028Z 05003KT 17/14 A2993 RMK A01 T01660138  RH  084%=      5-min Rain = 0
KSC1 171029Z 05002KT 17/14 A2994 RMK A01 T01650138  RH  084%=      5-min Rain = 0
KSC1 171030Z 05001KT 17/14 A2994 RMK A01 T01650138  RH  084%=      5-min Rain = 0
KSC1 171031Z 05001KT 16/14 A2994 RMK A01 T01640138  RH  084%=      5-min Rain = 0
KSC1 171032Z 03001KT 16/14 A2994 RMK A01 T01640138  RH  084%=      5-min Rain = 0
KSC1 171033Z 02001KT 16/14 A2994 RMK A01 T01640138  RH  084%=      5-min Rain = 0
KSC1 171034Z 02000KT 16/14 A2994 RMK A01 T01640138  RH  085%=      5-min Rain = 0
KSC1 171035Z 02000KT 16/14 A2994 RMK A01 T01630138  RH  085%=      5-min Rain = 0
KSC1 171036Z 00000KT 16/14 A2994 RMK A01 T01630138  RH  085%=      5-min Rain = 0
KSC1 171037Z 02000KT 16/14 A2993 RMK A01 T01630137  RH  085%=      5-min Rain = 0
KSC1 171038Z 02001KT 16/14 A2993 RMK A01 T01620137  RH  085%=      5-min Rain = 0
KSC1 171039Z 04000KT 16/14 A2993 RMK A01 T01630137  RH  084%=      5-min Rain = 0
KSC1 171040Z 12001KT 16/14 A2993 RMK A01 T01630137  RH  084%=      5-min Rain = 0
KSC1 171041Z 14002KT 16/14 A2993 RMK A01 T01630136  RH  084%=      5-min Rain = 0
KSC1 171042Z 14002KT 16/14 A2993 RMK A01 T01630137  RH  085%=      5-min Rain = 0
KSC1 171043Z 14002KT 16/14 A2993 RMK A01 T01630137  RH  085%=      5-min Rain = 0
KSC1 171044Z 14002KT 16/14 A2993 RMK A01 T01620138  RH  086%=      5-min Rain = 0
KSC1 171045Z 13002KT 16/14 A2993 RMK A01 T01610140  RH  087%=      5-min Rain = 0
KSC1 171046Z 13003KT 16/14 A2993 RMK A01 T01610140  RH  087%=      5-min Rain = 0
KSC1 171047Z 13003KT 16/14 A2993 RMK A01 T01600139  RH  088%=      5-min Rain = 0
KSC1 171048Z 13002KT 16/14 A2993 RMK A01 T01590138  RH  088%=      5-min Rain = 0
KSC1 171049Z 12002KT 16/14 A2993 RMK A01 T01580138  RH  088%=      5-min Rain = 0
KSC1 171050Z 11002KT 16/14 A2993 RMK A01 T01580138  RH  088%=      5-min Rain = 0
KSC1 171051Z 10002KT 16/14 A2993 RMK A01 T01570139  RH  089%=      5-min Rain = 0
KSC1 171052Z 10002KT 16/14 A2993 RMK A01 T01570140  RH  090%=      5-min Rain = 0
KSC1 171053Z 10002KT 16/14 A2993 RMK A01 T01560140  RH  090%=      5-min Rain = 0
KSC1 171054Z 10001KT 16/14 A2994 RMK A01 T01560141  RH  091%=      5-min Rain = 0
KSC1 171055Z 10001KT 16/14 A2994 RMK A01 T01550140  RH  091%=      5-min Rain = 0
KSC1 171056Z 10001KT 16/14 A2994 RMK A01 T01550140  RH  091%=      5-min Rain = 0
KSC1 171057Z 06002KT 16/14 A2994 RMK A01 T01550140  RH  091%=      5-min Rain = 0
KSC1 171058Z 05001KT 15/14 A2994 RMK A01 T01540140  RH  091%=      5-min Rain = 0
KSC1 171059Z 05001KT 15/14 A2994 RMK A01 T01540140  RH  091%=      5-min Rain = 0
KSC1 171100Z 05001KT 15/14 A2994 RMK A01 T01540139  RH  091%=      5-min Rain = 0
KSC1 171101Z 04002KT 16/14 A2994 RMK A01 T01550139  RH  090%=      5-min Rain = 0
KSC1 171102Z 04002KT 16/14 A2994 RMK A01 T01560139  RH  089%=      5-min Rain = 0
KSC1 171103Z 05002KT 16/14 A2994 RMK A01 T01560139  RH  089%=      5-min Rain = 0
KSC1 171104Z 05002KT 16/14 A2994 RMK A01 T01560139  RH  090%=      5-min Rain = 0
KSC1 171105Z 05001KT 16/14 A2994 RMK A01 T01560140  RH  090%=      5-min Rain = 0
KSC1 171106Z 05001KT 16/14 A2994 RMK A01 T01560139  RH  090%=      5-min Rain = 0
KSC1 171107Z 05001KT 16/14 A2994 RMK A01 T01550139  RH  090%=      5-min Rain = 0
KSC1 171108Z 06002KT 16/14 A2994 RMK A01 T01550138  RH  090%=      5-min Rain = 0
KSC1 171109Z 07002KT 15/14 A2994 RMK A01 T01540138  RH  090%=      5-min Rain = 0
KSC1 171110Z 07002KT 15/14 A2994 RMK A01 T01540138  RH  090%=      5-min Rain = 0
KSC1 171111Z 08002KT 15/14 A2994 RMK A01 T01540139  RH  091%=      5-min Rain = 0
KSC1 171112Z 08002KT 15/14 A2994 RMK A01 T01530140  RH  092%=      5-min Rain = 0
KSC1 171113Z 08002KT 15/14 A2994 RMK A01 T01520140  RH  092%=      5-min Rain = 0
KSC1 171114Z 08002KT 15/14 A2994 RMK A01 T01520140  RH  092%=      5-min Rain = 0
KSC1 171115Z 09002KT 15/14 A2994 RMK A01 T01520140  RH  092%=      5-min Rain = 0
KSC1 171116Z 10002KT 15/14 A2994 RMK A01 T01520140  RH  093%=      5-min Rain = 0
KSC1 171117Z 10002KT 15/14 A2994 RMK A01 T01520140  RH  093%=      5-min Rain = 0
KSC1 171118Z 10002KT 15/14 A2994 RMK A01 T01520141  RH  093%=      5-min Rain = 0
KSC1 171119Z 10002KT 15/14 A2994 RMK A01 T01510140  RH  093%=      5-min Rain = 0
KSC1 171120Z 10002KT 15/14 A2994 RMK A01 T01510140  RH  093%=      5-min Rain = 0
KSC1 171121Z 10002KT 15/14 A2994 RMK A01 T01510140  RH  093%=      5-min Rain = 0
KSC1 171122Z 10002KT 15/14 A2994 RMK A01 T01510140  RH  093%=      5-min Rain = 0
KSC1 171123Z 10001KT 15/14 A2994 RMK A01 T01500140  RH  094%=      5-min Rain = 0
KSC1 171124Z 10001KT 15/14 A2994 RMK A01 T01500141  RH  094%=      5-min Rain = 0
KSC1 171125Z 10001KT 15/14 A2994 RMK A01 T01500141  RH  094%=      5-min Rain = 0
KSC1 171126Z 10001KT 15/14 A2994 RMK A01 T01500140  RH  094%=      5-min Rain = 0
KSC1 171127Z 10000KT 15/14 A2994 RMK A01 T01510140  RH  093%=      5-min Rain = 0
KSC1 171128Z 00000KT 15/14 A2994 RMK A01 T01510139  RH  093%=      5-min Rain = 0
KSC1 171129Z 00000KT 15/14 A2994 RMK A01 T01510139  RH  093%=      5-min Rain = 0
KSC1 171130Z 10000KT 15/14 A2994 RMK A01 T01510140  RH  093%=      5-min Rain = 0
KSC1 171131Z 07001KT 15/14 A2994 RMK A01 T01510140  RH  093%=      5-min Rain = 0
KSC1 171132Z 04002KT 15/14 A2994 RMK A01 T01510141  RH  094%=      5-min Rain = 0
KSC1 171133Z 03003KT 15/14 A2994 RMK A01 T01500141  RH  094%=      5-min Rain = 0
KSC1 171134Z 03003KT 15/14 A2995 RMK A01 T01500141  RH  094%=      5-min Rain = 0
KSC1 171135Z 04003KT 15/14 A2995 RMK A01 T01500141  RH  094%=      5-min Rain = 0
KSC1 171136Z 04004KT 15/14 A2995 RMK A01 T01500141  RH  094%=      5-min Rain = 0
KSC1 171137Z 05004KT 15/14 A2995 RMK A01 T01510142  RH  094%=      5-min Rain = 0
KSC1 171138Z 05004KT 15/14 A2995 RMK A01 T01510142  RH  094%=      5-min Rain = 0
KSC1 171139Z 06004KT 15/14 A2995 RMK A01 T01510141  RH  093%=      5-min Rain = 0
KSC1 171140Z 06004KT 15/14 A2995 RMK A01 T01520141  RH  093%=      5-min Rain = 0
KSC1 171141Z 07004KT 15/14 A2995 RMK A01 T01530140  RH  092%=      5-min Rain = 0
KSC1 171142Z 06005KT 15/14 A2995 RMK A01 T01530140  RH  092%=      5-min Rain = 0
KSC1 171143Z 06005KT 15/14 A2995 RMK A01 T01540140  RH  091%=      5-min Rain = 0
KSC1 171144Z 07004KT 16/14 A2995 RMK A01 T01550140  RH  091%=      5-min Rain = 0
KSC1 171145Z 07004KT 16/14 A2995 RMK A01 T01550139  RH  090%=      5-min Rain = 0
KSC1 171146Z 08003KT 16/14 A2995 RMK A01 T01560139  RH  090%=      5-min Rain = 0
KSC1 171147Z 09003KT 16/14 A2995 RMK A01 T01560139  RH  090%=      5-min Rain = 0
KSC1 171148Z 10002KT 16/14 A2995 RMK A01 T01550139  RH  090%=      5-min Rain = 0
KSC1 171149Z 09002KT 16/14 A2995 RMK A01 T01560139  RH  090%=      5-min Rain = 0
KSC1 171150Z 10002KT 16/14 A2995 RMK A01 T01560139  RH  090%=      5-min Rain = 0
KSC1 171151Z 10002KT 16/14 A2995 RMK A01 T01560139  RH  090%=      5-min Rain = 0
KSC1 171152Z 10002KT 16/14 A2995 RMK A01 T01560139  RH  090%=      5-min Rain = 0
KSC1 171153Z 10003KT 16/14 A2995 RMK A01 T01560139  RH  090%=      5-min Rain = 0
KSC1 171154Z 10003KT 16/14 A2995 RMK A01 T01560139  RH  090%=      5-min Rain = 0
KSC1 171155Z 10003KT 16/14 A2995 RMK A01 T01560139  RH  090%=      5-min Rain = 0
KSC1 171156Z 10003KT 16/14 A2995 RMK A01 T01560139  RH  090%=      5-min Rain = 0
KSC1 171157Z 10003KT 16/14 A2995 RMK A01 T01560139  RH  090%=      5-min Rain = 0
KSC1 171158Z 10003KT 16/14 A2995 RMK A01 T01560139  RH  090%=      5-min Rain = 0
KSC1 171159Z 10004KT 16/14 A2995 RMK A01 T01560139  RH  090%=      5-min Rain = 0
KSC1 171200Z 10003KT 16/14 A2995 RMK A01 T01560139  RH  090%=      5-min Rain = 0
KSC1 171201Z 11003KT 16/14 A2995 RMK A01 T01560140  RH  090%=      5-min Rain = 0
KSC1 171202Z 11003KT 16/14 A2995 RMK A01 T01560140  RH  090%=      5-min Rain = 0
KSC1 171203Z 11003KT 16/14 A2995 RMK A01 T01570140  RH  090%=      5-min Rain = 0
KSC1 171204Z 11003KT 16/14 A2995 RMK A01 T01580140  RH  089%=      5-min Rain = 0
KSC1 171205Z 11003KT 16/14 A2995 RMK A01 T01590140  RH  089%=      5-min Rain = 0
KSC1 171206Z 11003KT 16/14 A2995 RMK A01 T01590139  RH  088%=      5-min Rain = 0
KSC1 171207Z 10002KT 16/14 A2995 RMK A01 T01600139  RH  087%=      5-min Rain = 0
KSC1 171208Z 11002KT 16/14 A2995 RMK A01 T01610139  RH  087%=      5-min Rain = 0
KSC1 171209Z 11002KT 16/14 A2994 RMK A01 T01610139  RH  086%=      5-min Rain = 0
KSC1 171210Z 12001KT 16/14 A2994 RMK A01 T01620138  RH  086%=      5-min Rain = 0
KSC1 171211Z 12002KT 16/14 A2994 RMK A01 T01620138  RH  086%=      5-min Rain = 0
KSC1 171212Z 12002KT 16/14 A2994 RMK A01 T01630138  RH  085%=      5-min Rain = 0
KSC1 171213Z 12003KT 16/14 A2994 RMK A01 T01630137  RH  084%=      5-min Rain = 0
KSC1 171214Z 12003KT 16/14 A2994 RMK A01 T01640136  RH  084%=      5-min Rain = 0
KSC1 171215Z 12004KT 17/14 A2994 RMK A01 T01650136  RH  083%=      5-min Rain = 0
KSC1 171216Z 12004KT 17/14 A2994 RMK A01 T01660136  RH  082%=      5-min Rain = 0
KSC1 171217Z 11003KT 17/14 A2995 RMK A01 T01680136  RH  081%=      5-min Rain = 0
KSC1 171218Z 11002KT 17/14 A2995 RMK A01 T01700137  RH  081%=      5-min Rain = 0
KSC1 171219Z 11002KT 17/14 A2995 RMK A01 T01710137  RH  080%=      5-min Rain = 0
KSC1 171220Z 10003KT 17/14 A2995 RMK A01 T01720137  RH  080%=      5-min Rain = 0
KSC1 171221Z 10003KT 17/14 A2995 RMK A01 T01720137  RH  080%=      5-min Rain = 0
KSC1 171222Z 10003KT 17/14 A2995 RMK A01 T01730137  RH  079%=      5-min Rain = 0
KSC1 171223Z 09003KT 17/14 A2995 RMK A01 T01730137  RH  079%=      5-min Rain = 0
KSC1 171224Z 09004KT 17/14 A2995 RMK A01 T01740138  RH  079%=      5-min Rain = 0
KSC1 171225Z 09004KT 18/14 A2995 RMK A01 T01750137  RH  078%=      5-min Rain = 0
KSC1 171226Z 08005KT 18/14 A2995 RMK A01 T01770137  RH  077%=      5-min Rain = 0
KSC1 171227Z 08004KT 18/14 A2995 RMK A01 T01780137  RH  077%=      5-min Rain = 0
KSC1 171228Z 08005KT 18/14 A2995 RMK A01 T01800136  RH  076%=      5-min Rain = 0
KSC1 171229Z 08005KT 18/14 A2995 RMK A01 T01810136  RH  075%=      5-min Rain = 0
KSC1 171230Z 08004KT 18/14 A2995 RMK A01 T01820136  RH  075%=      5-min Rain = 0
KSC1 171231Z 08005KT 18/14 A2995 RMK A01 T01820136  RH  075%=      5-min Rain = 0
KSC1 171232Z 06003KT 18/14 A2995 RMK A01 T01830138  RH  075%=      5-min Rain = 0
KSC1 171233Z 05002KT 18/14 A2995 RMK A01 T01830142  RH  077%=      5-min Rain = 0
KSC1 171234Z 04002KT 18/14 A2995 RMK A01 T01810143  RH  078%=      5-min Rain = 0
KSC1 171235Z 04002KT 18/14 A2995 RMK A01 T01800143  RH  079%=      5-min Rain = 0
KSC1 171236Z 04003KT 18/14 A2995 RMK A01 T01790143  RH  079%=      5-min Rain = 0
KSC1 171237Z 05003KT 18/14 A2995 RMK A01 T01780143  RH  080%=      5-min Rain = 0
KSC1 171238Z 05003KT 18/14 A2995 RMK A01 T01780143  RH  080%=      5-min Rain = 0
KSC1 171239Z 05002KT 18/14 A2995 RMK A01 T01780141  RH  079%=      5-min Rain = 0
KSC1 171240Z 05003KT 18/14 A2995 RMK A01 T01790142  RH  079%=      5-min Rain = 0
KSC1 171241Z 05003KT 18/14 A2995 RMK A01 T01790141  RH  078%=      5-min Rain = 0
KSC1 171242Z 05003KT 18/14 A2995 RMK A01 T01800141  RH  078%=      5-min Rain = 0
KSC1 171243Z 06003KT 18/14 A2995 RMK A01 T01810143  RH  078%=      5-min Rain = 0
KSC1 171244Z 06002KT 18/14 A2995 RMK A01 T01820142  RH  077%=      5-min Rain = 0
KSC1 171245Z 07001KT 18/14 A2995 RMK A01 T01820142  RH  077%=      5-min Rain = 0
KSC1 171246Z 08002KT 18/14 A2995 RMK A01 T01840143  RH  077%=      5-min Rain = 0
KSC1 171247Z 08002KT 19/14 A2995 RMK A01 T01850142  RH  076%=      5-min Rain = 0
KSC1 171248Z 09002KT 19/14 A2995 RMK A01 T01860142  RH  076%=      5-min Rain = 0
KSC1 171249Z 08002KT 19/14 A2995 RMK A01 T01870142  RH  075%=      5-min Rain = 0
KSC1 171250Z 08001KT 19/14 A2995 RMK A01 T01890143  RH  075%=      5-min Rain = 0
KSC1 171251Z 09001KT 19/14 A2995 RMK A01 T01900144  RH  075%=      5-min Rain = 0
KSC1 171252Z 11002KT 19/14 A2995 RMK A01 T01910144  RH  074%=      5-min Rain = 0
KSC1 171253Z 11002KT 19/15 A2995 RMK A01 T01930147  RH  075%=      5-min Rain = 0
KSC1 171254Z 12002KT 19/15 A2995 RMK A01 T01940147  RH  074%=      5-min Rain = 0
KSC1 171255Z 11003KT 20/15 A2995 RMK A01 T01960147  RH  073%=      5-min Rain = 0
KSC1 171256Z 10001KT 20/15 A2995 RMK A01 T01970146  RH  072%=      5-min Rain = 0
KSC1 171257Z 08002KT 20/15 A2995 RMK A01 T01980146  RH  072%=      5-min Rain = 0
KSC1 171258Z 07002KT 20/15 A2995 RMK A01 T01990146  RH  071%=      5-min Rain = 0
KSC1 171259Z 07002KT 20/14 A2995 RMK A01 T02000143  RH  070%=      5-min Rain = 0
KSC1 171300Z 07002KT 20/15 A2995 RMK A01 T02010145  RH  070%=      5-min Rain = 0
KSC1 171301Z 06002KT 20/15 A2995 RMK A01 T02020146  RH  070%=      5-min Rain = 0
KSC1 171302Z 04003KT 20/15 A2995 RMK A01 T02030145  RH  069%=      5-min Rain = 0
KSC1 171303Z 04002KT 20/15 A2995 RMK A01 T02030148  RH  071%=      5-min Rain = 0
KSC1 171304Z 04004KT 20/15 A2995 RMK A01 T02030147  RH  070%=      5-min Rain = 0
KSC1 171305Z 04003KT 20/15 A2995 RMK A01 T02020145  RH  070%=      5-min Rain = 0
KSC1 171306Z 04003KT 20/15 A2995 RMK A01 T02010145  RH  070%=      5-min Rain = 0
KSC1 171307Z 04003KT 20/15 A2995 RMK A01 T02010146  RH  070%=      5-min Rain = 0
KSC1 171308Z 04003KT 20/15 A2995 RMK A01 T02010145  RH  070%=      5-min Rain = 0
KSC1 171309Z 05003KT 20/15 A2995 RMK A01 T02010146  RH  071%=      5-min Rain = 0
KSC1 171310Z 04002KT 20/14 A2995 RMK A01 T02020144  RH  069%=      5-min Rain = 0
KSC1 171311Z 05003KT 20/14 A2995 RMK A01 T02020144  RH  069%=      5-min Rain = 0
KSC1 171312Z 06003KT 20/14 A2995 RMK A01 T02020144  RH  069%=      5-min Rain = 0
KSC1 171313Z 05001KT 20/15 A2995 RMK A01 T02030145  RH  069%=      5-min Rain = 0
KSC1 171314Z 06002KT 20/15 A2995 RMK A01 T02040146  RH  069%=      5-min Rain = 0
KSC1 171315Z 05003KT 21/15 A2995 RMK A01 T02050146  RH  069%=      5-min Rain = 0
KSC1 171316Z 06003KT 21/15 A2995 RMK A01 T02060145  RH  068%=      5-min Rain = 0
KSC1 171317Z 06002KT 21/14 A2995 RMK A01 T02070144  RH  067%=      5-min Rain = 0
KSC1 171318Z 07003KT 21/15 A2995 RMK A01 T02070145  RH  068%=      5-min Rain = 0
KSC1 171319Z 07003KT 21/14 A2995 RMK A01 T02080143  RH  066%=      5-min Rain = 0
KSC1 171320Z 09002KT 21/14 A2995 RMK A01 T02090142  RH  065%=      5-min Rain = 0
KSC1 171321Z 08002KT 21/15 A2995 RMK A01 T02100145  RH  066%=      5-min Rain = 0
KSC1 171322Z 09001KT 21/15 A2995 RMK A01 T02120147  RH  066%=      5-min Rain = 0
KSC1 171323Z 13003KT 21/15 A2995 RMK A01 T02140147  RH  066%=      5-min Rain = 0
KSC1 171324Z 12005KT 22/14 A2995 RMK A01 T02160140  RH  062%=      5-min Rain = 0
KSC1 171325Z 12005KT 22/14 A2995 RMK A01 T02200138  RH  060%=      5-min Rain = 0
KSC1 171326Z 12007KT 22/14 A2995 RMK A01 T02230135  RH  057%=      5-min Rain = 0
KSC1 171327Z 12005KT 23/14 A2995 RMK A01 T02260135  RH  056%=      5-min Rain = 0
KSC1 171328Z 13006KT 23/14 A2995 RMK A01 T02290136  RH  056%=      5-min Rain = 0
KSC1 171329Z 12008KT 23/14 A2995 RMK A01 T02300136  RH  055%=      5-min Rain = 0
KSC1 171330Z 12007KT 23/13 A2995 RMK A01 T02310134  RH  054%=      5-min Rain = 0
KSC1 171331Z 13006KT 23/14 A2995 RMK A01 T02310135  RH  055%=      5-min Rain = 0
KSC1 171332Z 12006KT 23/14 A2995 RMK A01 T02320135  RH  055%=      5-min Rain = 0
KSC1 171333Z 11006KT 23/14 A2995 RMK A01 T02330137  RH  055%=      5-min Rain = 0
KSC1 171334Z 13007KT 23/14 A2995 RMK A01 T02340136  RH  054%=      5-min Rain = 0
KSC1 171335Z 12005KT 23/14 A2995 RMK A01 T02340136  RH  054%=      5-min Rain = 0
KSC1 171336Z 13004KT 24/14 A2995 RMK A01 T02350137  RH  054%=      5-min Rain = 0
KSC1 171337Z 12005KT 24/14 A2995 RMK A01 T02360138  RH  054%=      5-min Rain = 0
KSC1 171338Z 12008KT 24/14 A2995 RMK A01 T02370136  RH  053%=      5-min Rain = 0
KSC1 171339Z 12008KT 24/14 A2995 RMK A01 T02370136  RH  053%=      5-min Rain = 0
KSC1 171340Z 12006KT 24/14 A2995 RMK A01 T02370138  RH  054%=      5-min Rain = 0
KSC1 171341Z 14007KT 24/14 A2995 RMK A01 T02370137  RH  053%=      5-min Rain = 0
KSC1 171342Z 13009KT 24/14 A2995 RMK A01 T02370136  RH  053%=      5-min Rain = 0
KSC1 171343Z 12008KT 24/14 A2995 RMK A01 T02370137  RH  054%=      5-min Rain = 0
KSC1 171344Z 13009KT 24/14 A2995 RMK A01 T02380137  RH  053%=      5-min Rain = 0
KSC1 171345Z 13008KT 24/14 A2995 RMK A01 T02380137  RH  053%=      5-min Rain = 0
KSC1 171346Z 13007KT 24/14 A2994 RMK A01 T02370138  RH  054%=      5-min Rain = 0
KSC1 171347Z 14008KT 24/14 A2994 RMK A01 T02380139  RH  054%=      5-min Rain = 0
KSC1 171348Z 13007KT 24/14 A2994 RMK A01 T02390138  RH  053%=      5-min Rain = 0
KSC1 171349Z 13009KT 24/14 A2994 RMK A01 T02390138  RH  053%=      5-min Rain = 0
KSC1 171350Z 14008KT 24/14 A2994 RMK A01 T02390137  RH  053%=      5-min Rain = 0
KSC1 171351Z 13007KT 24/14 A2994 RMK A01 T02390140  RH  054%=      5-min Rain = 0
KSC1 171352Z 12005KT 24/14 A2994 RMK A01 T02400142  RH  054%=      5-min Rain = 0
KSC1 171353Z 12008KT 24/14 A2995 RMK A01 T02420142  RH  054%=      5-min Rain = 0
KSC1 171354Z 14009KT 24/14 A2994 RMK A01 T02420140  RH  053%=      5-min Rain = 0
KSC1 171355Z 12007KT 24/14 A2994 RMK A01 T02420141  RH  053%=      5-min Rain = 0
KSC1 171356Z 14006KT 24/15 A2995 RMK A01 T02430145  RH  054%=      5-min Rain = 0
KSC1 171357Z 14006KT 24/14 A2995 RMK A01 T02440144  RH  053%=      5-min Rain = 0
KSC1 171358Z 13007KT 25/14 A2995 RMK A01 T02450144  RH  053%=      5-min Rain = 0
KSC1 171359Z 16008KT 25/15 A2995 RMK A01 T02460145  RH  053%=      5-min Rain = 0
KSC1 171400Z 14008KT 25/14 A2995 RMK A01 T02460144  RH  053%=      5-min Rain = 0
KSC1 171401Z 14007KT 25/14 A2995 RMK A01 T02460143  RH  053%=      5-min Rain = 0
KSC1 171402Z 13005KT 25/14 A2995 RMK A01 T02460144  RH  053%=      5-min Rain = 0
KSC1 171403Z 14005KT 25/15 A2995 RMK A01 T02470146  RH  054%=      5-min Rain = 0
KSC1 171404Z 13007KT 25/15 A2994 RMK A01 T02480146  RH  053%=      5-min Rain = 0
KSC1 171405Z 13008KT 25/15 A2995 RMK A01 T02490147  RH  053%=      5-min Rain = 0
KSC1 171406Z 14010KT 25/15 A2995 RMK A01 T02490145  RH  052%=      5-min Rain = 0
KSC1 171407Z 14008KT 25/15 A2995 RMK A01 T02490145  RH  052%=      5-min Rain = 0
KSC1 171408Z 14009KT 25/15 A2995 RMK A01 T02480145  RH  053%=      5-min Rain = 0
KSC1 171409Z 13008KT 25/15 A2995 RMK A01 T02490147  RH  053%=      5-min Rain = 0
KSC1 171410Z 12008KT 25/15 A2995 RMK A01 T02490147  RH  053%=      5-min Rain = 0
KSC1 171411Z 13009KT 25/15 A2995 RMK A01 T02500148  RH  053%=      5-min Rain = 0
KSC1 171412Z 15006KT 25/15 A2995 RMK A01 T02500147  RH  053%=      5-min Rain = 0
KSC1 171413Z 15007G12KT 25/15 A2995 RMK A01 T02510149  RH  053%=      5-min Rain = 0
KSC1 171414Z 13006KT 25/15 A2995 RMK A01 T02520147  RH  052%=      5-min Rain = 0
KSC1 171415Z 14006KT 25/15 A2995 RMK A01 T02520150  RH  053%=      5-min Rain = 0
KSC1 171416Z 12009KT 25/15 A2995 RMK A01 T02530150  RH  053%=      5-min Rain = 0
KSC1 171417Z 12007KT 25/15 A2995 RMK A01 T02540151  RH  053%=      5-min Rain = 0
KSC1 171418Z 14008KT 26/15 A2995 RMK A01 T02550151  RH  053%=      5-min Rain = 0
KSC1 171419Z 14006KT 26/15 A2995 RMK A01 T02560152  RH  053%=      5-min Rain = 0
KSC1 171420Z 14010KT 26/15 A2995 RMK A01 T02570151  RH  052%=      5-min Rain = 0
KSC1 171421Z 15010KT 26/15 A2995 RMK A01 T02560151  RH  052%=      5-min Rain = 0
KSC1 171422Z 13007KT 26/15 A2995 RMK A01 T02560152  RH  053%=      5-min Rain = 0
KSC1 171423Z 13009G14KT 26/15 A2995 RMK A01 T02570153  RH  053%=      5-min Rain = 0
KSC1 171424Z 13010KT 26/15 A2995 RMK A01 T02580152  RH  052%=      5-min Rain = 0
KSC1 171425Z 14009KT 26/15 A2995 RMK A01 T02580152  RH  052%=      5-min Rain = 0
KSC1 171426Z 14009G14KT 26/15 A2995 RMK A01 T02590152  RH  052%=      5-min Rain = 0
KSC1 171427Z 14011KT 26/15 A2995 RMK A01 T02580150  RH  051%=      5-min Rain = 0
KSC1 171428Z 13007KT 26/15 A2995 RMK A01 T02580152  RH  052%=      5-min Rain = 0
KSC1 171429Z 14007KT 26/15 A2995 RMK A01 T02580152  RH  052%=      5-min Rain = 0
KSC1 171430Z 15009KT 26/15 A2995 RMK A01 T02580152  RH  052%=      5-min Rain = 0
KSC1 171431Z 14007KT 26/15 A2995 RMK A01 T02590152  RH  052%=      5-min Rain = 0
KSC1 171432Z 13006KT 26/15 A2995 RMK A01 T02590154  RH  052%=      5-min Rain = 0
KSC1 171433Z 16006KT 26/16 A2995 RMK A01 T02610156  RH  053%=      5-min Rain = 0
KSC1 171434Z 13004KT 26/16 A2995 RMK A01 T02630156  RH  052%=      5-min Rain = 0
KSC1 171435Z 13006KT 27/16 A2995 RMK A01 T02650157  RH  051%=      5-min Rain = 0
KSC1 171436Z 15006KT 27/16 A2995 RMK A01 T02660155  RH  051%=      5-min Rain = 0
KSC1 171437Z 14008KT 27/16 A2995 RMK A01 T02660155  RH  050%=      5-min Rain = 0
KSC1 171438Z 14010KT 27/15 A2995 RMK A01 T02660153  RH  050%=      5-min Rain = 0
KSC1 171439Z 13008KT 27/15 A2995 RMK A01 T02650153  RH  050%=      5-min Rain = 0
KSC1 171440Z 14008KT 27/15 A2995 RMK A01 T02650153  RH  050%=      5-min Rain = 0
KSC1 171441Z 14006KT 27/15 A2995 RMK A01 T02650154  RH  051%=      5-min Rain = 0
KSC1 171442Z 14005KT 27/15 A2995 RMK A01 T02650154  RH  051%=      5-min Rain = 0
KSC1 171443Z 15006KT 27/16 A2995 RMK A01 T02660155  RH  051%=      5-min Rain = 0
KSC1 171444Z 14006KT 27/16 A2995 RMK A01 T02670155  RH  050%=      5-min Rain = 0
KSC1 171445Z 14005KT 27/16 A2995 RMK A01 T02680155  RH  050%=      5-min Rain = 0
KSC1 171446Z 15006KT 27/16 A2995 RMK A01 T02680156  RH  050%=      5-min Rain = 0
KSC1 171447Z 15004KT 27/16 A2995 RMK A01 T02700157  RH  050%=      5-min Rain = 0
KSC1 171448Z 14005KT 27/16 A2995 RMK A01 T02700156  RH  050%=      5-min Rain = 0
KSC1 171449Z 15008G13KT 27/16 A2995 RMK A01 T02710156  RH  049%=      5-min Rain = 0
KSC1 171450Z 15011KT 27/15 A2995 RMK A01 T02700154  RH  049%=      5-min Rain = 0
KSC1 171451Z 16012KT 27/15 A2995 RMK A01 T02680153  RH  049%=      5-min Rain = 0
KSC1 171452Z 15007KT 27/15 A2995 RMK A01 T02660153  RH  050%=      5-min Rain = 0
KSC1 171453Z 13006KT 27/15 A2995 RMK A01 T02660154  RH  050%=      5-min Rain = 0
KSC1 171454Z 13007KT 27/16 A2995 RMK A01 T02680158  RH  051%=      5-min Rain = 0
KSC1 171455Z 14010KT 27/16 A2995 RMK A01 T02710155  RH  049%=      5-min Rain = 0
KSC1 171456Z 15009KT 27/16 A2995 RMK A01 T02710155  RH  049%=      5-min Rain = 0
KSC1 171457Z 16007KT 27/16 A2995 RMK A01 T02710156  RH  049%=      5-min Rain = 0
KSC1 171458Z 16007KT 27/16 A2995 RMK A01 T02710156  RH  049%=      5-min Rain = 0
KSC1 171459Z 14005KT 27/16 A2995 RMK A01 T02730158  RH  049%=      5-min Rain = 0
KSC1 171500Z 13007KT 27/16 A2995 RMK A01 T02740156  RH  049%=      5-min Rain = 0
KSC1 171501Z 16006KT 27/16 A2995 RMK A01 T02740157  RH  049%=      5-min Rain = 0
KSC1 171502Z 16004KT 28/16 A2995 RMK A01 T02750159  RH  049%=      5-min Rain = 0
KSC1 171503Z 16006KT 28/16 A2995 RMK A01 T02760156  RH  048%=      5-min Rain = 0
KSC1 171504Z 15008KT 28/16 A2995 RMK A01 T02750157  RH  049%=      5-min Rain = 0
KSC1 171505Z 15008G13KT 27/16 A2995 RMK A01 T02740158  RH  049%=      5-min Rain = 0
KSC1 171506Z 14009KT 27/16 A2995 RMK A01 T02740156  RH  049%=      5-min Rain = 0
KSC1 171507Z 15010G15KT 27/16 A2995 RMK A01 T02730157  RH  049%=      5-min Rain = 0
KSC1 171508Z 15011KT 27/16 A2995 RMK A01 T02730156  RH  049%=      5-min Rain = 0
KSC1 171509Z 14010KT 27/16 A2995 RMK A01 T02720157  RH  049%=      5-min Rain = 0
KSC1 171510Z 15010KT 27/16 A2995 RMK A01 T02720156  RH  049%=      5-min Rain = 0
KSC1 171511Z 14009KT 27/16 A2995 RMK A01 T02720158  RH  050%=      5-min Rain = 0
KSC1 171512Z 15007KT 27/16 A2995 RMK A01 T02730158  RH  050%=      5-min Rain = 0
KSC1 171513Z 14011KT 27/16 A2995 RMK A01 T02740159  RH  049%=      5-min Rain = 0
KSC1 171514Z 14009KT 27/16 A2995 RMK A01 T02740158  RH  049%=      5-min Rain = 0
KSC1 171515Z 15008KT 28/16 A2995 RMK A01 T02750158  RH  049%=      5-min Rain = 0
KSC1 171516Z 17008KT 28/16 A2995 RMK A01 T02760158  RH  049%=      5-min Rain = 0
KSC1 171517Z 15007KT 28/16 A2995 RMK A01 T02760160  RH  049%=      5-min Rain = 0
KSC1 171518Z 14008KT 28/16 A2995 RMK A01 T02780161  RH  049%=      5-min Rain = 0
KSC1 171519Z 13009G14KT 28/16 A2995 RMK A01 T02790159  RH  048%=      5-min Rain = 0
KSC1 171520Z 13010KT 28/16 A2995 RMK A01 T02780160  RH  048%=      5-min Rain = 0
KSC1 171521Z 14010KT 28/16 A2995 RMK A01 T02780159  RH  048%=      5-min Rain = 0
KSC1 171522Z 15009KT 28/16 A2995 RMK A01 T02770160  RH  049%=      5-min Rain = 0
KSC1 171523Z 13010KT 28/16 A2995 RMK A01 T02770159  RH  049%=      5-min Rain = 0
KSC1 171524Z 14012KT 28/16 A2995 RMK A01 T02770159  RH  048%=      5-min Rain = 0
KSC1 171525Z 14009KT 28/16 A2995 RMK A01 T02770158  RH  048%=      5-min Rain = 0
KSC1 171526Z 15011KT 28/16 A2995 RMK A01 T02780159  RH  048%=      5-min Rain = 0
KSC1 171527Z 16008KT 28/16 A2995 RMK A01 T02790160  RH  048%=      5-min Rain = 0
KSC1 171528Z 16008KT 28/16 A2995 RMK A01 T02800161  RH  048%=      5-min Rain = 0
KSC1 171529Z 17008KT 28/16 A2995 RMK A01 T02810162  RH  048%=      5-min Rain = 0
KSC1 171530Z 17007KT 28/16 A2995 RMK A01 T02830161  RH  047%=      5-min Rain = 0
KSC1 171531Z 16008KT 28/16 A2995 RMK A01 T02830163  RH  048%=      5-min Rain = 0
KSC1 171532Z 16008KT 28/16 A2995 RMK A01 T02840162  RH  048%=      5-min Rain = 0
KSC1 171533Z 16009KT 28/16 A2995 RMK A01 T02840162  RH  047%=      5-min Rain = 0
KSC1 171534Z 16009KT 28/16 A2995 RMK A01 T02840162  RH  047%=      5-min Rain = 0
KSC1 171535Z 15011KT 28/16 A2995 RMK A01 T02830161  RH  047%=      5-min Rain = 0
KSC1 171536Z 16011KT 28/16 A2995 RMK A01 T02830161  RH  048%=      5-min Rain = 0
KSC1 171537Z 16011KT 28/16 A2995 RMK A01 T02830161  RH  048%=      5-min Rain = 0
KSC1 171538Z 15011KT 28/16 A2995 RMK A01 T02820160  RH  047%=      5-min Rain = 0
KSC1 171539Z 16010KT 28/16 A2995 RMK A01 T02820160  RH  048%=      5-min Rain = 0
KSC1 171540Z 14010KT 28/16 A2995 RMK A01 T02820161  RH  048%=      5-min Rain = 0
KSC1 171541Z 16009KT 28/16 A2995 RMK A01 T02830161  RH  048%=      5-min Rain = 0
KSC1 171542Z 16009KT 28/16 A2995 RMK A01 T02840163  RH  048%=      5-min Rain = 0
KSC1 171543Z 14010KT 29/16 A2995 RMK A01 T02850163  RH  047%=      5-min Rain = 0
KSC1 171544Z 17008KT 29/16 A2995 RMK A01 T02870164  RH  047%=      5-min Rain = 0
KSC1 171545Z 17008KT 29/17 A2995 RMK A01 T02890165  RH  047%=      5-min Rain = 0
KSC1 171546Z 16011KT 29/16 A2995 RMK A01 T02890164  RH  047%=      5-min Rain = 0
KSC1 171547Z 17011KT 29/16 A2995 RMK A01 T02880163  RH  047%=      5-min Rain = 0
KSC1 171548Z 16011KT 29/17 A2995 RMK A01 T02880165  RH  047%=      5-min Rain = 0
KSC1 171549Z 17009KT 29/16 A2995 RMK A01 T02880164  RH  047%=      5-min Rain = 0
KSC1 171550Z 15010KT 29/16 A2995 RMK A01 T02890164  RH  047%=      5-min Rain = 0
KSC1 171551Z 15012KT 29/16 A2995 RMK A01 T02890164  RH  047%=      5-min Rain = 0
KSC1 171552Z 15008KT 29/17 A2995 RMK A01 T02890165  RH  047%=      5-min Rain = 0.01
KSC1 171553Z 15008KT 29/17 A2995 RMK A01 T02900166  RH  047%=      5-min Rain = 0
KSC1 171554Z 15011KT 29/17 A2995 RMK A01 T02930167  RH  047%=      5-min Rain = 0
KSC1 171555Z 17012KT 29/16 A2995 RMK A01 T02930163  RH  045%=      5-min Rain = 0
KSC1 171556Z 16011KT 29/16 A2994 RMK A01 T02920164  RH  046%=      5-min Rain = 0
KSC1 171557Z 16009KT 29/16 A2994 RMK A01 T02920163  RH  046%=      5-min Rain = 0
KSC1 171558Z 14011KT 29/16 A2994 RMK A01 T02940163  RH  045%=      5-min Rain = 0
KSC1 171559Z 15010G18KT 29/16 A2994 RMK A01 T02940161  RH  045%=      5-min Rain = 0
KSC1 171600Z 16015KT 30/16 A2994 RMK A01 T02950160  RH  044%=      5-min Rain = 0
KSC1 171601Z 16013G18KT 29/16 A2994 RMK A01 T02940160  RH  044%=      5-min Rain = 0
KSC1 171602Z 16012G18KT 29/16 A2994 RMK A01 T02940160  RH  044%=      5-min Rain = 0
KSC1 171603Z 17011G19KT 29/16 A2994 RMK A01 T02940161  RH  045%=      5-min Rain = 0
KSC1 171604Z 17014KT 30/16 A2994 RMK A01 T02960161  RH  044%=      5-min Rain = 0
KSC1 171605Z 16011KT 30/16 A2994 RMK A01 T02960162  RH  045%=      5-min Rain = 0
KSC1 171606Z 17013G18KT 30/16 A2994 RMK A01 T02980163  RH  044%=      5-min Rain = 0
KSC1 171607Z 17014KT 30/16 A2994 RMK A01 T02990160  RH  043%=      5-min Rain = 0
KSC1 171608Z 17012G17KT 30/16 A2994 RMK A01 T02980161  RH  043%=      5-min Rain = 0
KSC1 171609Z 16011KT 30/16 A2994 RMK A01 T02990161  RH  043%=      5-min Rain = 0
KSC1 171610Z 17015KT 30/16 A2994 RMK A01 T03000160  RH  043%=      5-min Rain = 0
KSC1 171611Z 17014KT 30/16 A2994 RMK A01 T03000159  RH  043%=      5-min Rain = 0
KSC1 171612Z 17012KT 30/16 A2994 RMK A01 T03000160  RH  043%=      5-min Rain = 0
KSC1 171613Z 16014KT 30/16 A2994 RMK A01 T03010159  RH  042%=      5-min Rain = 0
KSC1 171614Z 16013KT 30/16 A2994 RMK A01 T03010159  RH  042%=      5-min Rain = 0
KSC1 171615Z 16009KT 30/16 A2994 RMK A01 T03000160  RH  043%=      5-min Rain = 0
KSC1 171616Z 15013KT 30/16 A2994 RMK A01 T03020160  RH  042%=      5-min Rain = 0
KSC1 171617Z 16012KT 31/16 A2994 RMK A01 T03050159  RH  041%=      5-min Rain = 0
KSC1 171618Z 16015KT 31/16 A2994 RMK A01 T03070158  RH  041%=      5-min Rain = 0
KSC1 171619Z 16014G19KT 31/16 A2994 RMK A01 T03060156  RH  040%=      5-min Rain = 0
KSC1 171620Z 15015G20KT 31/16 A2994 RMK A01 T03050158  RH  041%=      5-min Rain = 0
KSC1 171621Z 15015KT 30/16 A2994 RMK A01 T03040155  RH  040%=      5-min Rain = 0
KSC1 171622Z 17011KT 30/16 A2994 RMK A01 T03040157  RH  041%=      5-min Rain = 0
KSC1 171623Z 17013KT 31/16 A2994 RMK A01 T03050160  RH  042%=      5-min Rain = 0
KSC1 171624Z 17014KT 31/16 A2994 RMK A01 T03080159  RH  041%=      5-min Rain = 0
KSC1 171625Z 17016KT 31/16 A2994 RMK A01 T03060157  RH  041%=      5-min Rain = 0
KSC1 171626Z 17013G19KT 30/16 A2994 RMK A01 T03040157  RH  041%=      5-min Rain = 0
KSC1 171627Z 17015KT 30/16 A2994 RMK A01 T03030158  RH  042%=      5-min Rain = 0
KSC1 171628Z 18015KT 30/16 A2994 RMK A01 T03030158  RH  042%=      5-min Rain = 0
KSC1 171629Z 18012KT 30/16 A2994 RMK A01 T03020158  RH  042%=      5-min Rain = 0
KSC1 171630Z 16012G17KT 30/16 A2994 RMK A01 T03040159  RH  042%=      5-min Rain = 0
KSC1 171631Z 16010G17KT 31/16 A2994 RMK A01 T03050161  RH  042%=      5-min Rain = 0
KSC1 171632Z 14014KT 31/16 A2994 RMK A01 T03080160  RH  041%=      5-min Rain = 0
KSC1 171633Z 14013KT 31/16 A2994 RMK A01 T03080160  RH  041%=      5-min Rain = 0
KSC1 171634Z 15016KT 31/16 A2994 RMK A01 T03070160  RH  041%=      5-min Rain = 0
KSC1 171635Z 15017KT 31/16 A2994 RMK A01 T03070160  RH  041%=      5-min Rain = 0
KSC1 171636Z 15017KT 31/16 A2994 RMK A01 T03050159  RH  041%=      5-min Rain = 0
KSC1 171637Z 15015KT 30/16 A2994 RMK A01 T03040160  RH  042%=      5-min Rain = 0
KSC1 171638Z 17013KT 31/16 A2994 RMK A01 T03050160  RH  042%=      5-min Rain = 0
KSC1 171639Z 16011KT 31/16 A2994 RMK A01 T03060163  RH  042%=      5-min Rain = 0
KSC1 171640Z 16012KT 31/17 A2994 RMK A01 T03100165  RH  042%=      5-min Rain = 0
KSC1 171641Z 17013KT 31/16 A2994 RMK A01 T03100162  RH  041%=      5-min Rain = 0
KSC1 171642Z 16010KT 31/16 A2994 RMK A01 T03090164  RH  042%=      5-min Rain = 0
KSC1 171643Z 13012G20KT 31/17 A2994 RMK A01 T03110165  RH  041%=      5-min Rain = 0
KSC1 171644Z 13015KT 31/16 A2994 RMK A01 T03120162  RH  041%=      5-min Rain = 0
KSC1 171645Z 13012G18KT 31/16 A2994 RMK A01 T03120164  RH  041%=      5-min Rain = 0
KSC1 171646Z 15012G17KT 31/16 A2994 RMK A01 T03120161  RH  040%=      5-min Rain = 0
KSC1 171647Z 15010G15KT 31/16 A2994 RMK A01 T03130161  RH  040%=      5-min Rain = 0
KSC1 171648Z 16012KT 31/16 A2994 RMK A01 T03130161  RH  040%=      5-min Rain = 0
KSC1 171649Z 15013KT 31/16 A2994 RMK A01 T03140160  RH  039%=      5-min Rain = 0
KSC1 171650Z 16016KT 32/16 A2994 RMK A01 T03150160  RH  039%=      5-min Rain = 0
KSC1 171651Z 16014KT 31/16 A2994 RMK A01 T03140158  RH  039%=      5-min Rain = 0
KSC1 171652Z 17012G17KT 31/16 A2994 RMK A01 T03140157  RH  039%=      5-min Rain = 0
KSC1 171653Z 18012KT 31/16 A2994 RMK A01 T03140158  RH  039%=      5-min Rain = 0
KSC1 171654Z 17010KT 31/16 A2994 RMK A01 T03140157  RH  039%=      5-min Rain = 0
KSC1 171655Z 16012KT 32/16 A2994 RMK A01 T03150159  RH  039%=      5-min Rain = 0
KSC1 171656Z 15012KT 32/16 A2994 RMK A01 T03150160  RH  039%=      5-min Rain = 0
KSC1 171657Z 15010KT 32/16 A2994 RMK A01 T03150161  RH  040%=      5-min Rain = 0
KSC1 171658Z 14014KT 32/16 A2994 RMK A01 T03160162  RH  040%=      5-min Rain = 0
KSC1 171659Z 14010KT 32/16 A2994 RMK A01 T03170161  RH  039%=      5-min Rain = 0
KSC1 171700Z 13009G15KT 32/16 A2994 RMK A01 T03150160  RH  039%=      5-min Rain = 0
KSC1 171701Z 15013KT 31/16 A2994 RMK A01 T03140162  RH  040%=      5-min Rain = 0
KSC1 171702Z 15014KT 31/16 A2994 RMK A01 T03140160  RH  040%=      5-min Rain = 0
KSC1 171703Z 16011KT 31/16 A2994 RMK A01 T03120160  RH  040%=      5-min Rain = 0
KSC1 171704Z 17014KT 31/16 A2994 RMK A01 T03120162  RH  041%=      5-min Rain = 0
KSC1 171705Z 17010KT 31/16 A2994 RMK A01 T03120162  RH  040%=      5-min Rain = 0
KSC1 171706Z 15012G17KT 31/16 A2994 RMK A01 T03130162  RH  040%=      5-min Rain = 0
KSC1 171707Z 14011KT 31/16 A2994 RMK A01 T03130162  RH  040%=      5-min Rain = 0
KSC1 171708Z 14012KT 32/16 A2994 RMK A01 T03160160  RH  039%=      5-min Rain = 0
KSC1 171709Z 15011KT 32/16 A2994 RMK A01 T03170160  RH  039%=      5-min Rain = 0
KSC1 171710Z 13011KT 32/16 A2994 RMK A01 T03160159  RH  039%=      5-min Rain = 0
KSC1 171711Z 12010KT 31/16 A2994 RMK A01 T03140162  RH  040%=      5-min Rain = 0
KSC1 171712Z 14010KT 32/16 A2994 RMK A01 T03160163  RH  040%=      5-min Rain = 0
KSC1 171713Z 16014KT 32/16 A2994 RMK A01 T03180164  RH  040%=      5-min Rain = 0
KSC1 171714Z 14011KT 32/16 A2994 RMK A01 T03170162  RH  039%=      5-min Rain = 0
KSC1 171715Z 13012KT 32/16 A2994 RMK A01 T03170163  RH  040%=      5-min Rain = 0
KSC1 171716Z 15010KT 32/16 A2994 RMK A01 T03170163  RH  040%=      5-min Rain = 0
KSC1 171717Z 16011KT 32/16 A2994 RMK A01 T03180164  RH  040%=      5-min Rain = 0
KSC1 171718Z 15012KT 32/17 A2994 RMK A01 T03190165  RH  040%=      5-min Rain = 0
KSC1 171719Z 15010KT 32/16 A2994 RMK A01 T03190164  RH  039%=      5-min Rain = 0
KSC1 171720Z 15010KT 32/16 A2994 RMK A01 T03170163  RH  040%=      5-min Rain = 0
KSC1 171721Z 13007KT 32/16 A2994 RMK A01 T03170164  RH  040%=      5-min Rain = 0
KSC1 171722Z 15014KT 32/17 A2994 RMK A01 T03200166  RH  040%=      5-min Rain = 0
KSC1 171723Z 16011G16KT 32/16 A2994 RMK A01 T03210163  RH  039%=      5-min Rain = 0
KSC1 171724Z 17011KT 32/16 A2994 RMK A01 T03180163  RH  039%=      5-min Rain = 0
KSC1 171725Z 16009KT 32/17 A2994 RMK A01 T03160165  RH  040%=      5-min Rain = 0
KSC1 171726Z 15007KT 32/17 A2994 RMK A01 T03180166  RH  040%=      5-min Rain = 0
KSC1 171727Z 12009KT 32/17 A2994 RMK A01 T03220169  RH  040%=      5-min Rain = 0
KSC1 171728Z 12012KT 33/17 A2994 RMK A01 T03250168  RH  039%=      5-min Rain = 0
KSC1 171729Z 14010KT 33/17 A2994 RMK A01 T03250166  RH  039%=      5-min Rain = 0
KSC1 171730Z 14006KT 33/17 A2994 RMK A01 T03250169  RH  039%=      5-min Rain = 0
KSC1 171731Z 14012G19KT 33/17 A2994 RMK A01 T03290169  RH  038%=      5-min Rain = 0
KSC1 171732Z 14011KT 33/17 A2994 RMK A01 T03280168  RH  038%=      5-min Rain = 0
KSC1 171733Z 13009G18KT 33/17 A2993 RMK A01 T03270170  RH  039%=      5-min Rain = 0
KSC1 171734Z 14011G16KT 33/17 A2993 RMK A01 T03280169  RH  038%=      5-min Rain = 0
KSC1 171735Z 15013G19KT 33/17 A2994 RMK A01 T03280167  RH  038%=      5-min Rain = 0
KSC1 171736Z 16008KT 33/17 A2993 RMK A01 T03250167  RH  039%=      5-min Rain = 0
KSC1 171737Z 16008KT 33/17 A2993 RMK A01 T03250167  RH  039%=      5-min Rain = 0
KSC1 171738Z 14009KT 33/17 A2993 RMK A01 T03250169  RH  039%=      5-min Rain = 0
KSC1 171739Z 14010G17KT 33/17 A2993 RMK A01 T03270167  RH  038%=      5-min Rain = 0
KSC1 171740Z 14014KT 33/17 A2993 RMK A01 T03280167  RH  038%=      5-min Rain = 0
KSC1 171741Z 14014KT 33/17 A2993 RMK A01 T03270167  RH  038%=      5-min Rain = 0
KSC1 171742Z 15010KT 33/17 A2993 RMK A01 T03250165  RH  038%=      5-min Rain = 0
KSC1 171743Z 15009KT 32/17 A2993 RMK A01 T03240167  RH  039%=      5-min Rain = 0
KSC1 171744Z 14013KT 33/17 A2993 RMK A01 T03270166  RH  038%=      5-min Rain = 0
KSC1 171745Z 14012G17KT 33/17 A2993 RMK A01 T03270166  RH  038%=      5-min Rain = 0
KSC1 171746Z 12014G19KT 33/17 A2993 RMK A01 T03270165  RH  038%=      5-min Rain = 0
KSC1 171747Z 12016G22KT 33/16 A2993 RMK A01 T03290164  RH  037%=      5-min Rain = 0
KSC1 171748Z 13017G22KT 33/16 A2993 RMK A01 T03300162  RH  037%=      5-min Rain = 0
KSC1 171749Z 16014KT 33/16 A2993 RMK A01 T03290163  RH  037%=      5-min Rain = 0
KSC1 171750Z 16013KT 33/16 A2993 RMK A01 T03290162  RH  037%=      5-min Rain = 0
KSC1 171751Z 15013KT 33/16 A2993 RMK A01 T03300161  RH  036%=      5-min Rain = 0
KSC1 171752Z 14010KT 33/17 A2993 RMK A01 T03290165  RH  038%=      5-min Rain = 0
KSC1 171753Z 13010KT 33/17 A2993 RMK A01 T03290167  RH  038%=      5-min Rain = 0
KSC1 171754Z 13014KT 33/17 A2992 RMK A01 T03300166  RH  038%=      5-min Rain = 0
KSC1 171755Z 16014G19KT 33/16 A2992 RMK A01 T03310161  RH  036%=      5-min Rain = 0
KSC1 171756Z 16014KT 33/16 A2992 RMK A01 T03320160  RH  036%=      5-min Rain = 0
KSC1 171757Z 18014KT 33/16 A2992 RMK A01 T03300158  RH  036%=      5-min Rain = 0
KSC1 171758Z 18011KT 33/16 A2992 RMK A01 T03270157  RH  036%=      5-min Rain = 0
KSC1 171759Z 16013KT 33/16 A2992 RMK A01 T03270160  RH  037%=      5-min Rain = 0
KSC1 171800Z 14012KT 33/16 A2992 RMK A01 T03300159  RH  036%=      5-min Rain = 0
KSC1 171801Z 17011KT 33/16 A2992 RMK A01 T03330160  RH  036%=      5-min Rain = 0
KSC1 171802Z 13011KT 33/16 A2992 RMK A01 T03340159  RH  035%=      5-min Rain = 0
KSC1 171803Z 12014KT 33/16 A2992 RMK A01 T03340157  RH  035%=      5-min Rain = 0
KSC1 171804Z 13012KT 33/16 A2992 RMK A01 T03320156  RH  035%=      5-min Rain = 0
KSC1 171805Z 14012KT 33/16 A2992 RMK A01 T03320158  RH  035%=      5-min Rain = 0
KSC1 171806Z 15011G16KT 34/16 A2992 RMK A01 T03350160  RH  035%=      5-min Rain = 0
KSC1 171807Z 15013KT 34/16 A2992 RMK A01 T03360159  RH  035%=      5-min Rain = 0
KSC1 171808Z 12013KT 34/16 A2992 RMK A01 T03370160  RH  035%=      5-min Rain = 0
KSC1 171809Z 13011KT 34/16 A2992 RMK A01 T03390157  RH  034%=      5-min Rain = 0
KSC1 171810Z 13010KT 34/16 A2992 RMK A01 T03380158  RH  034%=      5-min Rain = 0
KSC1 171811Z 14012KT 34/16 A2992 RMK A01 T03390159  RH  034%=      5-min Rain = 0
KSC1 171812Z 14017KT 34/16 A2992 RMK A01 T03380157  RH  034%=      5-min Rain = 0
KSC1 171813Z 14018KT 34/15 A2992 RMK A01 T03350153  RH  033%=      5-min Rain = 0
KSC1 171814Z 16011KT 33/15 A2992 RMK A01 T03340148  RH  033%=      5-min Rain = 0
KSC1 171815Z 16011KT 34/15 A2991 RMK A01 T03360152  RH  033%=      5-min Rain = 0
KSC1 171816Z 16013KT 34/15 A2991 RMK A01 T03370154  RH  033%=      5-min Rain = 0
KSC1 171817Z 16013KT 34/16 A2991 RMK A01 T03360157  RH  034%=      5-min Rain = 0
KSC1 171818Z 16010KT 34/16 A2991 RMK A01 T03360156  RH  034%=      5-min Rain = 0
KSC1 171819Z 15012G19KT 34/16 A2991 RMK A01 T03350155  RH  034%=      5-min Rain = 0
KSC1 171820Z 16016KT 34/15 A2991 RMK A01 T03350152  RH  033%=      5-min Rain = 0
KSC1 171821Z 15014KT 34/15 A2991 RMK A01 T03360147  RH  032%=      5-min Rain = 0
KSC1 171822Z 15016KT 34/15 A2991 RMK A01 T03380150  RH  032%=      5-min Rain = 0
KSC1 171823Z 13011KT 34/15 A2991 RMK A01 T03380150  RH  032%=      5-min Rain = 0
KSC1 171824Z 14010KT 34/15 A2991 RMK A01 T03380152  RH  033%=      5-min Rain = 0
KSC1 171825Z 14012KT 34/15 A2991 RMK A01 T03390151  RH  032%=      5-min Rain = 0
KSC1 171826Z 15012KT 34/15 A2991 RMK A01 T03390149  RH  032%=      5-min Rain = 0
KSC1 171827Z 16014KT 34/15 A2991 RMK A01 T03380153  RH  033%=      5-min Rain = 0
KSC1 171828Z 17014KT 34/15 A2991 RMK A01 T03390152  RH  033%=      5-min Rain = 0
KSC1 171829Z 15016KT 34/15 A299 RMK A01 T03380152  RH  033%=      5-min Rain = 0
KSC1 171830Z 15009KT 34/16 A299 RMK A01 T03370155  RH  034%=      5-min Rain = 0
KSC1 171831Z 13015KT 34/16 A299 RMK A01 T03390157  RH  034%=      5-min Rain = 0
KSC1 171832Z 13014KT 34/16 A299 RMK A01 T03390157  RH  034%=      5-min Rain = 0
KSC1 171833Z 14012KT 34/16 A299 RMK A01 T03360158  RH  034%=      5-min Rain = 0
KSC1 171834Z 11012KT 34/16 A299 RMK A01 T03360160  RH  035%=      5-min Rain = 0
KSC1 171835Z 12010KT 34/16 A299 RMK A01 T03390162  RH  035%=      5-min Rain = 0
KSC1 171836Z 13012KT 34/16 A299 RMK A01 T03440160  RH  033%=      5-min Rain = 0
KSC1 171837Z 12015KT 34/16 A299 RMK A01 T03430156  RH  033%=      5-min Rain = 0
KSC1 171838Z 16011KT 34/16 A299 RMK A01 T03440156  RH  033%=      5-min Rain = 0
KSC1 171839Z 14012KT 35/15 A299 RMK A01 T03460152  RH  031%=      5-min Rain = 0
KSC1 171840Z 14013KT 35/15 A299 RMK A01 T03450152  RH  032%=      5-min Rain = 0
KSC1 171841Z 14012KT 34/15 A299 RMK A01 T03410154  RH  033%=      5-min Rain = 0
KSC1 171842Z 12013KT 34/16 A299 RMK A01 T03400158  RH  034%=      5-min Rain = 0
KSC1 171843Z 12019G24KT 34/16 A299 RMK A01 T03410158  RH  033%=      5-min Rain = 0
KSC1 171844Z 14014G19KT 34/15 A299 RMK A01 T03410151  RH  032%=      5-min Rain = 0
KSC1 171845Z 15014KT 34/15 A299 RMK A01 T03440146  RH  030%=      5-min Rain = 0
KSC1 171846Z 16014KT 35/15 A299 RMK A01 T03450150  RH  031%=      5-min Rain = 0
KSC1 171847Z 15014KT 34/15 A299 RMK A01 T03440154  RH  032%=      5-min Rain = 0
KSC1 171848Z 14011KT 34/15 A299 RMK A01 T03410152  RH  032%=      5-min Rain = 0
KSC1 171849Z 16011KT 34/16 A2989 RMK A01 T03400156  RH  033%=      5-min Rain = 0
KSC1 171850Z 13014KT 34/16 A2989 RMK A01 T03430158  RH  033%=      5-min Rain = 0
KSC1 171851Z 13013KT 34/16 A2989 RMK A01 T03430157  RH  033%=      5-min Rain = 0
KSC1 171852Z 13013KT 34/16 A2989 RMK A01 T03440157  RH  033%=      5-min Rain = 0
KSC1 171853Z 13009G16KT 35/16 A2989 RMK A01 T03450159  RH  033%=      5-min Rain = 0
KSC1 171854Z 12013KT 35/16 A2989 RMK A01 T03460157  RH  032%=      5-min Rain = 0
KSC1 171855Z 12016KT 35/16 A2989 RMK A01 T03480156  RH  032%=      5-min Rain = 0
KSC1 171856Z 12016KT 35/15 A2989 RMK A01 T03470152  RH  031%=      5-min Rain = 0
KSC1 171857Z 13015KT 35/15 A2989 RMK A01 T03450154  RH  032%=      5-min Rain = 0
KSC1 171858Z 13014KT 35/15 A2989 RMK A01 T03450153  RH  032%=      5-min Rain = 0
KSC1 171859Z 13014KT 34/15 A2989 RMK A01 T03440151  RH  031%=      5-min Rain = 0
KSC1 171900Z 12013G19KT 34/15 A2989 RMK A01 T03420152  RH  032%=      5-min Rain = 0
KSC1 171901Z 12015KT 34/15 A2989 RMK A01 T03420152  RH  032%=      5-min Rain = 0
KSC1 171902Z 13016G21KT 34/15 A2989 RMK A01 T03410153  RH  032%=      5-min Rain = 0
KSC1 171903Z 14015G20KT 34/15 A2989 RMK A01 T03410152  RH  032%=      5-min Rain = 0
KSC1 171904Z 14013G18KT 34/15 A2989 RMK A01 T03420150  RH  032%=      5-min Rain = 0
KSC1 171905Z 15013KT 34/15 A2989 RMK A01 T03410149  RH  032%=      5-min Rain = 0
KSC1 171906Z 15014KT 34/15 A2989 RMK A01 T03390150  RH  032%=      5-min Rain = 0
KSC1 171907Z 15014KT 34/15 A2989 RMK A01 T03410147  RH  031%=      5-min Rain = 0
KSC1 171908Z 17014KT 34/15 A2989 RMK A01 T03410145  RH  031%=      5-min Rain = 0
KSC1 171909Z 17012G17KT 34/15 A2989 RMK A01 T03420149  RH  031%=      5-min Rain = 0
KSC1 171910Z 14010KT 34/15 A2989 RMK A01 T03420151  RH  032%=      5-min Rain = 0
KSC1 171911Z 15009G14KT 34/15 A2989 RMK A01 T03420152  RH  032%=      5-min Rain = 0
KSC1 171912Z 14012G18KT 35/16 A2989 RMK A01 T03460155  RH  032%=      5-min Rain = 0
KSC1 171913Z 14017KT 35/15 A2989 RMK A01 T03500147  RH  030%=      5-min Rain = 0
KSC1 171914Z 14012G18KT 35/14 A2989 RMK A01 T03480144  RH  029%=      5-min Rain = 0
KSC1 171915Z 14012KT 35/14 A2989 RMK A01 T03470144  RH  030%=      5-min Rain = 0
KSC1 171916Z 15012G18KT 35/15 A2989 RMK A01 T03460146  RH  030%=      5-min Rain = 0
KSC1 171917Z 15011KT 35/15 A2989 RMK A01 T03460146  RH  030%=      5-min Rain = 0
KSC1 171918Z 16016G21KT 35/15 A2989 RMK A01 T03460146  RH  030%=      5-min Rain = 0
KSC1 171919Z 15013KT 35/15 A2989 RMK A01 T03460146  RH  030%=      5-min Rain = 0
KSC1 171920Z 14010G15KT 35/15 A2989 RMK A01 T03470145  RH  030%=      5-min Rain = 0
KSC1 171921Z 14013G21KT 35/15 A2988 RMK A01 T03470148  RH  030%=      5-min Rain = 0
KSC1 171922Z 14015KT 35/15 A2988 RMK A01 T03470145  RH  030%=      5-min Rain = 0
KSC1 171923Z 14015KT 35/14 A2988 RMK A01 T03470144  RH  030%=      5-min Rain = 0
KSC1 171924Z 14012KT 35/14 A2988 RMK A01 T03450140  RH  029%=      5-min Rain = 0
KSC1 171925Z 13013KT 35/14 A2988 RMK A01 T03460143  RH  030%=      5-min Rain = 0
KSC1 171926Z 14014KT 35/15 A2988 RMK A01 T03490145  RH  030%=      5-min Rain = 0
KSC1 171927Z 14014G19KT 35/15 A2988 RMK A01 T03490147  RH  030%=      5-min Rain = 0
KSC1 171928Z 15013KT 35/15 A2988 RMK A01 T03480147  RH  030%=      5-min Rain = 0
KSC1 171929Z 15016KT 35/15 A2988 RMK A01 T03510147  RH  030%=      5-min Rain = 0
KSC1 171930Z 15011KT 35/15 A2988 RMK A01 T03500146  RH  029%=      5-min Rain = 0
KSC1 171931Z 14013G18KT 35/15 A2988 RMK A01 T03480149  RH  030%=      5-min Rain = 0
KSC1 171932Z 14014G19KT 35/15 A2988 RMK A01 T03500149  RH  030%=      5-min Rain = 0
KSC1 171933Z 14015KT 35/15 A2988 RMK A01 T03490148  RH  030%=      5-min Rain = 0
KSC1 171934Z 13010KT 35/15 A2988 RMK A01 T03470150  RH  031%=      5-min Rain = 0
KSC1 171935Z 14012KT 35/15 A2988 RMK A01 T03470153  RH  031%=      5-min Rain = 0
KSC1 171936Z 15013KT 35/15 A2988 RMK A01 T03490148  RH  030%=      5-min Rain = 0
KSC1 171937Z 15016KT 35/15 A2987 RMK A01 T03500149  RH  030%=      5-min Rain = 0
KSC1 171938Z 14013KT 35/15 A2988 RMK A01 T03480150  RH  031%=      5-min Rain = 0
KSC1 171939Z 12013KT 35/15 A2988 RMK A01 T03470152  RH  031%=      5-min Rain = 0
KSC1 171940Z 14015G20KT 35/15 A2987 RMK A01 T03480150  RH  031%=      5-min Rain = 0
KSC1 171941Z 16017G23KT 35/14 A2987 RMK A01 T03500141  RH  028%=      5-min Rain = 0
KSC1 171942Z 15011G16KT 35/14 A2988 RMK A01 T03520141  RH  028%=      5-min Rain = 0
KSC1 171943Z 15014KT 35/14 A2988 RMK A01 T03530140  RH  028%=      5-min Rain = 0
KSC1 171944Z 14009KT 35/14 A2987 RMK A01 T03520137  RH  027%=      5-min Rain = 0
KSC1 171945Z 13011G17KT 35/14 A2987 RMK A01 T03520140  RH  028%=      5-min Rain = 0
KSC1 171946Z 14014KT 35/14 A2987 RMK A01 T03520144  RH  029%=      5-min Rain = 0
KSC1 171947Z 15010KT 35/14 A2987 RMK A01 T03500144  RH  029%=      5-min Rain = 0
KSC1 171948Z 12017G22KT 35/14 A2987 RMK A01 T03500144  RH  029%=      5-min Rain = 0
KSC1 171949Z 13016KT 35/14 A2987 RMK A01 T03500144  RH  029%=      5-min Rain = 0
KSC1 171950Z 15010G16KT 35/15 A2987 RMK A01 T03500146  RH  029%=      5-min Rain = 0
KSC1 171951Z 14008KT 35/15 A2987 RMK A01 T03530149  RH  030%=      5-min Rain = 0
KSC1 171952Z 15012G17KT 36/15 A2987 RMK A01 T03570149  RH  029%=      5-min Rain = 0
KSC1 171953Z 15012KT 36/15 A2987 RMK A01 T03570147  RH  029%=      5-min Rain = 0
KSC1 171954Z 14014G20KT 36/15 A2987 RMK A01 T03570145  RH  028%=      5-min Rain = 0
KSC1 171955Z 13015KT 36/14 A2987 RMK A01 T03580139  RH  027%=      5-min Rain = 0
KSC1 171956Z 13015KT 36/14 A2987 RMK A01 T03570137  RH  027%=      5-min Rain = 0
KSC1 171957Z 14013KT 35/14 A2987 RMK A01 T03540136  RH  027%=      5-min Rain = 0
KSC1 171958Z 15011G16KT 35/14 A2987 RMK A01 T03520137  RH  028%=      5-min Rain = 0
KSC1 171959Z 13013G20KT 35/14 A2987 RMK A01 T03520142  RH  028%=      5-min Rain = 0
KSC1 172000Z 14015KT 35/14 A2987 RMK A01 T03540140  RH  028%=      5-min Rain = 0
KSC1 172001Z 14011G17KT 36/14 A2987 RMK A01 T03550140  RH  028%=      5-min Rain = 0
KSC1 172002Z 13015KT 36/14 A2987 RMK A01 T03550141  RH  028%=      5-min Rain = 0
KSC1 172003Z 13011G16KT 35/14 A2986 RMK A01 T03530142  RH  028%=      5-min Rain = 0
KSC1 172004Z 14009KT 35/15 A2986 RMK A01 T03530147  RH  029%=      5-min Rain = 0
KSC1 172005Z 15012G17KT 36/15 A2986 RMK A01 T03550145  RH  028%=      5-min Rain = 0
KSC1 172006Z 15013KT 36/14 A2986 RMK A01 T03560142  RH  028%=      5-min Rain = 0
KSC1 172007Z 14015G20KT 36/14 A2986 RMK A01 T03550144  RH  028%=      5-min Rain = 0
KSC1 172008Z 15013G20KT 36/15 A2986 RMK A01 T03560145  RH  028%=      5-min Rain = 0
KSC1 172009Z 12015KT 36/14 A2986 RMK A01 T03570144  RH  028%=      5-min Rain = 0
KSC1 172010Z 12018G23KT 36/14 A2986 RMK A01 T03560144  RH  028%=      5-min Rain = 0
KSC1 172011Z 14016KT 35/15 A2986 RMK A01 T03540145  RH  029%=      5-min Rain = 0
KSC1 172012Z 15014KT 36/14 A2986 RMK A01 T03550144  RH  028%=      5-min Rain = 0
KSC1 172013Z 15011KT 35/14 A2986 RMK A01 T03540144  RH  028%=      5-min Rain = 0
KSC1 172014Z 15011KT 35/14 A2986 RMK A01 T03530142  RH  028%=      5-min Rain = 0
KSC1 172015Z 16011G16KT 35/14 A2986 RMK A01 T03520142  RH  028%=      5-min Rain = 0
KSC1 172016Z 14015G21KT 35/14 A2986 RMK A01 T03520142  RH  029%=      5-min Rain = 0
KSC1 172017Z 15015G21KT 35/14 A2985 RMK A01 T03530140  RH  028%=      5-min Rain = 0
KSC1 172018Z 14012G17KT 35/14 A2986 RMK A01 T03520136  RH  027%=      5-min Rain = 0
KSC1 172019Z 13015G20KT 35/14 A2985 RMK A01 T03520135  RH  027%=      5-min Rain = 0
KSC1 172020Z 14016G21KT 35/13 A2985 RMK A01 T03520131  RH  026%=      5-min Rain = 0
KSC1 172021Z 15013G19KT 35/13 A2985 RMK A01 T03520134  RH  027%=      5-min Rain = 0
KSC1 172022Z 15011KT 35/14 A2985 RMK A01 T03530136  RH  027%=      5-min Rain = 0
KSC1 172023Z 16011KT 35/14 A2985 RMK A01 T03540135  RH  027%=      5-min Rain = 0
KSC1 172024Z 15012KT 36/14 A2985 RMK A01 T03560136  RH  027%=      5-min Rain = 0
KSC1 172025Z 13014G20KT 36/14 A2985 RMK A01 T03600137  RH  026%=      5-min Rain = 0
KSC1 172026Z 13014G19KT 36/14 A2985 RMK A01 T03620138  RH  026%=      5-min Rain = 0
KSC1 172027Z 14014G19KT 36/14 A2985 RMK A01 T03600135  RH  026%=      5-min Rain = 0
KSC1 172028Z 14017KT 36/14 A2985 RMK A01 T03570135  RH  026%=      5-min Rain = 0
KSC1 172029Z 14013G20KT 36/14 A2985 RMK A01 T03560135  RH  027%=      5-min Rain = 0
KSC1 172030Z 16014G19KT 36/14 A2985 RMK A01 T03590135  RH  026%=      5-min Rain = 0
KSC1 172031Z 15014KT 36/13 A2985 RMK A01 T03590132  RH  026%=      5-min Rain = 0
KSC1 172032Z 16010KT 36/13 A2984 RMK A01 T03570131  RH  026%=      5-min Rain = 0
KSC1 172033Z 14017KT 36/14 A2984 RMK A01 T03570135  RH  026%=      5-min Rain = 0
KSC1 172034Z 14017KT 36/14 A2984 RMK A01 T03580136  RH  026%=      5-min Rain = 0
KSC1 172035Z 13014KT 36/14 A2984 RMK A01 T03570135  RH  026%=      5-min Rain = 0
KSC1 172036Z 13014G19KT 36/14 A2984 RMK A01 T03550135  RH  027%=      5-min Rain = 0
KSC1 172037Z 14013KT 36/14 A2984 RMK A01 T03550135  RH  027%=      5-min Rain = 0
KSC1 172038Z 12012KT 36/14 A2984 RMK A01 T03560136  RH  027%=      5-min Rain = 0
KSC1 172039Z 15015KT 36/14 A2984 RMK A01 T03590137  RH  027%=      5-min Rain = 0
KSC1 172040Z 14017G22KT 36/13 A2984 RMK A01 T03590133  RH  026%=      5-min Rain = 0
KSC1 172041Z 14016G21KT 36/13 A2984 RMK A01 T03570133  RH  026%=      5-min Rain = 0
KSC1 172042Z 14016G22KT 36/13 A2984 RMK A01 T03570132  RH  026%=      5-min Rain = 0
KSC1 172043Z 14013KT 36/13 A2984 RMK A01 T03550133  RH  026%=      5-min Rain = 0
KSC1 172044Z 13010KT 35/13 A2984 RMK A01 T03540134  RH  027%=      5-min Rain = 0
KSC1 172045Z 14010G16KT 35/14 A2984 RMK A01 T03540136  RH  027%=      5-min Rain = 0
KSC1 172046Z 15010KT 36/14 A2983 RMK A01 T03570136  RH  027%=      5-min Rain = 0
KSC1 172047Z 15011KT 36/14 A2983 RMK A01 T03600138  RH  027%=      5-min Rain = 0
KSC1 172048Z 14013KT 36/14 A2983 RMK A01 T03610140  RH  027%=      5-min Rain = 0
KSC1 172049Z 12017KT 36/14 A2983 RMK A01 T03620142  RH  027%=      5-min Rain = 0
KSC1 172050Z 13011KT 36/14 A2983 RMK A01 T03610142  RH  027%=      5-min Rain = 0
KSC1 172051Z 16016G22KT 36/14 A2983 RMK A01 T03610136  RH  026%=      5-min Rain = 0
KSC1 172052Z 16015KT 36/13 A2983 RMK A01 T03600133  RH  026%=      5-min Rain = 0
KSC1 172053Z 15014KT 36/13 A2983 RMK A01 T03580134  RH  026%=      5-min Rain = 0
KSC1 172054Z 14012KT 36/13 A2983 RMK A01 T03560133  RH  026%=      5-min Rain = 0
KSC1 172055Z 14012KT 36/14 A2983 RMK A01 T03550136  RH  027%=      5-min Rain = 0
KSC1 172056Z 14012G17KT 36/14 A2983 RMK A01 T03550137  RH  027%=      5-min Rain = 0
KSC1 172057Z 15011KT 36/14 A2983 RMK A01 T03560137  RH  027%=      5-min Rain = 0
KSC1 172058Z 16011KT 36/13 A2983 RMK A01 T03570134  RH  026%=      5-min Rain = 0
KSC1 172059Z 16013KT 36/13 A2983 RMK A01 T03560134  RH  026%=      5-min Rain = 0
KSC1 172100Z 16011KT 36/13 A2983 RMK A01 T03560132  RH  026%=      5-min Rain = 0
KSC1 172101Z 15011KT 36/13 A2983 RMK A01 T03560133  RH  026%=      5-min Rain = 0
KSC1 172102Z 14014KT 36/13 A2983 RMK A01 T03560133  RH  026%=      5-min Rain = 0
KSC1 172103Z 12014KT 35/13 A2983 RMK A01 T03540133  RH  026%=      5-min Rain = 0
KSC1 172104Z 12014G21KT 35/13 A2983 RMK A01 T03530134  RH  027%=      5-min Rain = 0
KSC1 172105Z 14014G19KT 35/13 A2983 RMK A01 T03530134  RH  027%=      5-min Rain = 0
KSC1 172106Z 14009G14KT 35/14 A2983 RMK A01 T03510137  RH  028%=      5-min Rain = 0
KSC1 172107Z 12015G20KT 35/14 A2983 RMK A01 T03530135  RH  027%=      5-min Rain = 0
KSC1 172108Z 13012G18KT 35/13 A2982 RMK A01 T03540132  RH  026%=      5-min Rain = 0
KSC1 172109Z 14014KT 36/13 A2983 RMK A01 T03560132  RH  026%=      5-min Rain = 0
KSC1 172110Z 15013G19KT 36/13 A2982 RMK A01 T03570130  RH  026%=      5-min Rain = 0
KSC1 172111Z 16009KT 36/13 A2982 RMK A01 T03560131  RH  026%=      5-min Rain = 0
KSC1 172112Z 15010KT 36/13 A2982 RMK A01 T03570130  RH  026%=      5-min Rain = 0
KSC1 172113Z 15011KT 36/13 A2982 RMK A01 T03570130  RH  026%=      5-min Rain = 0
KSC1 172114Z 13013KT 36/13 A2982 RMK A01 T03560131  RH  026%=      5-min Rain = 0
KSC1 172115Z 12016KT 36/13 A2982 RMK A01 T03550133  RH  026%=      5-min Rain = 0
KSC1 172116Z 13017KT 35/13 A2982 RMK A01 T03540132  RH  026%=      5-min Rain = 0
KSC1 172117Z 14012KT 35/13 A2982 RMK A01 T03530132  RH  027%=      5-min Rain = 0
KSC1 172118Z 16014KT 35/13 A2982 RMK A01 T03530131  RH  026%=      5-min Rain = 0
KSC1 172119Z 15013KT 35/13 A2982 RMK A01 T03530134  RH  027%=      5-min Rain = 0
KSC1 172120Z 13012KT 35/14 A2982 RMK A01 T03530135  RH  027%=      5-min Rain = 0
KSC1 172121Z 12010KT 35/14 A2982 RMK A01 T03540135  RH  027%=      5-min Rain = 0
KSC1 172122Z 13014G21KT 35/14 A2982 RMK A01 T03540135  RH  027%=      5-min Rain = 0
KSC1 172123Z 14018G23KT 35/13 A2982 RMK A01 T03540133  RH  026%=      5-min Rain = 0
KSC1 172124Z 14015G21KT 36/13 A2982 RMK A01 T03550132  RH  026%=      5-min Rain = 0
KSC1 172125Z 14014KT 35/13 A2982 RMK A01 T03530132  RH  026%=      5-min Rain = 0
KSC1 172126Z 14014G19KT 35/13 A2982 RMK A01 T03520132  RH  027%=      5-min Rain = 0
KSC1 172127Z 13013G18KT 35/13 A2982 RMK A01 T03520131  RH  026%=      5-min Rain = 0
KSC1 172128Z 13013KT 35/13 A2982 RMK A01 T03510129  RH  026%=      5-min Rain = 0
KSC1 172129Z 12016G21KT 35/13 A2982 RMK A01 T03510129  RH  026%=      5-min Rain = 0
KSC1 172130Z 12013G18KT 35/13 A2982 RMK A01 T03510129  RH  026%=      5-min Rain = 0
KSC1 172131Z 12014KT 35/13 A2982 RMK A01 T03510129  RH  026%=      5-min Rain = 0
KSC1 172132Z 13013G18KT 35/13 A2982 RMK A01 T03520128  RH  026%=      5-min Rain = 0
KSC1 172133Z 14011KT 35/13 A2981 RMK A01 T03520128  RH  026%=      5-min Rain = 0
KSC1 172134Z 14012G17KT 35/13 A2981 RMK A01 T03520129  RH  026%=      5-min Rain = 0
KSC1 172135Z 14014G19KT 35/13 A2981 RMK A01 T03530128  RH  026%=      5-min Rain = 0
KSC1 172136Z 15016KT 35/13 A2981 RMK A01 T03540125  RH  025%=      5-min Rain = 0
KSC1 172137Z 15011KT 35/13 A2981 RMK A01 T03520125  RH  025%=      5-min Rain = 0
KSC1 172138Z 15015KT 35/13 A2981 RMK A01 T03530126  RH  025%=      5-min Rain = 0
KSC1 172139Z 14011KT 35/13 A2981 RMK A01 T03520127  RH  026%=      5-min Rain = 0
KSC1 172140Z 14011G17KT 35/13 A2981 RMK A01 T03540129  RH  026%=      5-min Rain = 0
KSC1 172141Z 13010KT 36/13 A2981 RMK A01 T03550127  RH  025%=      5-min Rain = 0
KSC1 172142Z 11015KT 36/13 A2981 RMK A01 T03560128  RH  025%=      5-min Rain = 0
KSC1 172143Z 11016KT 36/12 A2981 RMK A01 T03560123  RH  025%=      5-min Rain = 0
KSC1 172144Z 12017KT 35/12 A2981 RMK A01 T03530122  RH  025%=      5-min Rain = 0
KSC1 172145Z 12013KT 35/12 A2981 RMK A01 T03520124  RH  025%=      5-min Rain = 0
KSC1 172146Z 12016KT 35/13 A2981 RMK A01 T03530125  RH  025%=      5-min Rain = 0
KSC1 172147Z 12014KT 35/13 A2981 RMK A01 T03540125  RH  025%=      5-min Rain = 0
KSC1 172148Z 13013G19KT 35/13 A2981 RMK A01 T03540126  RH  025%=      5-min Rain = 0
KSC1 172149Z 12015KT 35/12 A2981 RMK A01 T03540124  RH  025%=      5-min Rain = 0
KSC1 172150Z 13016KT 35/12 A2981 RMK A01 T03530124  RH  025%=      5-min Rain = 0
KSC1 172151Z 14016KT 35/12 A2981 RMK A01 T03530122  RH  025%=      5-min Rain = 0
KSC1 172152Z 14018KT 35/12 A2981 RMK A01 T03510121  RH  025%=      5-min Rain = 0
KSC1 172153Z 13014KT 35/12 A2981 RMK A01 T03510121  RH  025%=      5-min Rain = 0
KSC1 172154Z 13011KT 35/12 A2981 RMK A01 T03510120  RH  025%=      5-min Rain = 0
KSC1 172155Z 12012KT 35/12 A2981 RMK A01 T03510120  RH  025%=      5-min Rain = 0
KSC1 172156Z 12012KT 35/12 A2981 RMK A01 T03510121  RH  025%=      5-min Rain = 0
KSC1 172157Z 13012KT 35/12 A2981 RMK A01 T03500121  RH  025%=      5-min Rain = 0
KSC1 172158Z 13016KT 35/12 A2981 RMK A01 T03510121  RH  025%=      5-min Rain = 0
KSC1 172159Z 12016KT 35/12 A2981 RMK A01 T03500121  RH  025%=      5-min Rain = 0
KSC1 172200Z 12014KT 35/12 A298 RMK A01 T03490121  RH  025%=      5-min Rain = 0
KSC1 172201Z 13011G16KT 35/12 A298 RMK A01 T03490121  RH  025%=      5-min Rain = 0
KSC1 172202Z 14010KT 35/12 A298 RMK A01 T03490122  RH  025%=      5-min Rain = 0
KSC1 172203Z 13012G17KT 35/12 A298 RMK A01 T03500122  RH  025%=      5-min Rain = 0
KSC1 172204Z 14012KT 35/12 A298 RMK A01 T03510123  RH  025%=      5-min Rain = 0
KSC1 172205Z 13014KT 35/12 A2981 RMK A01 T03510123  RH  025%=      5-min Rain = 0
KSC1 172206Z 14011KT 35/12 A2981 RMK A01 T03510123  RH  025%=      5-min Rain = 0
KSC1 172207Z 14014KT 35/12 A298 RMK A01 T03510121  RH  025%=      5-min Rain = 0
KSC1 172208Z 12013KT 35/12 A2981 RMK A01 T03510121  RH  025%=      5-min Rain = 0
KSC1 172209Z 12016KT 35/12 A2981 RMK A01 T03510120  RH  025%=      5-min Rain = 0
KSC1 172210Z 12013KT 35/12 A2981 RMK A01 T03500120  RH  025%=      5-min Rain = 0
KSC1 172211Z 13010G15KT 35/12 A2981 RMK A01 T03500122  RH  025%=      5-min Rain = 0
KSC1 172212Z 13012KT 35/12 A298 RMK A01 T03500120  RH  025%=      5-min Rain = 0
KSC1 172213Z 12011G17KT 35/12 A298 RMK A01 T03500121  RH  025%=      5-min Rain = 0
KSC1 172214Z 14011G16KT 35/12 A298 RMK A01 T03500120  RH  025%=      5-min Rain = 0
KSC1 172215Z 14012KT 35/12 A298 RMK A01 T03500121  RH  025%=      5-min Rain = 0
KSC1 172216Z 13013KT 35/12 A298 RMK A01 T03500121  RH  025%=      5-min Rain = 0
KSC1 172217Z 14012G17KT 35/12 A298 RMK A01 T03490121  RH  025%=      5-min Rain = 0
KSC1 172218Z 15013KT 35/12 A298 RMK A01 T03480121  RH  025%=      5-min Rain = 0
KSC1 172219Z 15015G21KT 35/12 A298 RMK A01 T03480117  RH  025%=      5-min Rain = 0
KSC1 172220Z 13015KT 35/12 A298 RMK A01 T03480118  RH  025%=      5-min Rain = 0
KSC1 172221Z 13015KT 35/12 A298 RMK A01 T03490119  RH  025%=      5-min Rain = 0
KSC1 172222Z 14018G23KT 35/12 A298 RMK A01 T03480118  RH  025%=      5-min Rain = 0
KSC1 172223Z 13014G19KT 35/12 A298 RMK A01 T03470119  RH  025%=      5-min Rain = 0
KSC1 172224Z 13017KT 35/12 A298 RMK A01 T03470119  RH  025%=      5-min Rain = 0
KSC1 172225Z 14016KT 35/12 A298 RMK A01 T03460120  RH  025%=      5-min Rain = 0
KSC1 172226Z 14014KT 35/12 A298 RMK A01 T03460120  RH  025%=      5-min Rain = 0
KSC1 172227Z 13014G20KT 35/12 A298 RMK A01 T03450119  RH  025%=      5-min Rain = 0
KSC1 172228Z 13014KT 35/12 A298 RMK A01 T03460119  RH  025%=      5-min Rain = 0
KSC1 172229Z 13011KT 35/12 A298 RMK A01 T03460119  RH  025%=      5-min Rain = 0
KSC1 172230Z 14010KT 35/12 A298 RMK A01 T03460120  RH  025%=      5-min Rain = 0
KSC1 172231Z 13012G17KT 35/12 A298 RMK A01 T03460118  RH  025%=      5-min Rain = 0
KSC1 172232Z 13014KT 35/12 A298 RMK A01 T03460117  RH  025%=      5-min Rain = 0
KSC1 172233Z 14013KT 35/12 A298 RMK A01 T03470117  RH  025%=      5-min Rain = 0
KSC1 172234Z 15010KT 35/12 A298 RMK A01 T03460118  RH  025%=      5-min Rain = 0
KSC1 172235Z 15012G17KT 35/12 A298 RMK A01 T03470117  RH  025%=      5-min Rain = 0
KSC1 172236Z 14015KT 35/12 A298 RMK A01 T03470115  RH  024%=      5-min Rain = 0
KSC1 172237Z 15014KT 35/11 A298 RMK A01 T03470113  RH  024%=      5-min Rain = 0
KSC1 172238Z 16011KT 35/11 A298 RMK A01 T03470113  RH  024%=      5-min Rain = 0
KSC1 172239Z 15010KT 35/12 A298 RMK A01 T03470115  RH  025%=      5-min Rain = 0
KSC1 172240Z 15009G14KT 35/12 A298 RMK A01 T03470116  RH  025%=      5-min Rain = 0
KSC1 172241Z 15011KT 35/12 A2979 RMK A01 T03470116  RH  025%=      5-min Rain = 0
KSC1 172242Z 15011G16KT 35/12 A2979 RMK A01 T03470116  RH  025%=      5-min Rain = 0
KSC1 172243Z 14013G21KT 35/12 A2979 RMK A01 T03470115  RH  025%=      5-min Rain = 0
KSC1 172244Z 15012KT 35/11 A2979 RMK A01 T03460114  RH  024%=      5-min Rain = 0
KSC1 172245Z 14013KT 35/12 A2979 RMK A01 T03460115  RH  025%=      5-min Rain = 0
KSC1 172246Z 15017G22KT 35/11 A2979 RMK A01 T03450112  RH  024%=      5-min Rain = 0
KSC1 172247Z 15015KT 35/11 A2979 RMK A01 T03450113  RH  024%=      5-min Rain = 0
KSC1 172248Z 15013KT 34/11 A2979 RMK A01 T03440114  RH  025%=      5-min Rain = 0
KSC1 172249Z 15014KT 34/11 A298 RMK A01 T03440113  RH  025%=      5-min Rain = 0
KSC1 172250Z 16012KT 34/11 A298 RMK A01 T03440113  RH  025%=      5-min Rain = 0
KSC1 172251Z 15013KT 34/11 A2979 RMK A01 T03430114  RH  025%=      5-min Rain = 0
KSC1 172252Z 16012G18KT 34/11 A298 RMK A01 T03430114  RH  025%=      5-min Rain = 0
KSC1 172253Z 15013KT 34/12 A2979 RMK A01 T03420115  RH  025%=      5-min Rain = 0
KSC1 172254Z 15014KT 34/12 A2979 RMK A01 T03420115  RH  025%=      5-min Rain = 0
KSC1 172255Z 15011KT 34/11 A2979 RMK A01 T03420114  RH  025%=      5-min Rain = 0
KSC1 172256Z 16012G19KT 34/12 A2979 RMK A01 T03420115  RH  025%=      5-min Rain = 0
KSC1 172257Z 16011G17KT 34/12 A2979 RMK A01 T03420115  RH  025%=      5-min Rain = 0
KSC1 172258Z 16014KT 34/12 A2979 RMK A01 T03410115  RH  025%=      5-min Rain = 0
KSC1 172259Z 15012KT 34/12 A2979 RMK A01 T03410115  RH  025%=      5-min Rain = 0
KSC1 172300Z 15012KT 34/12 A2979 RMK A01 T03410115  RH  025%=      5-min Rain = 0
KSC1 172301Z 15011KT 34/12 A2979 RMK A01 T03400116  RH  026%=      5-min Rain = 0
KSC1 172302Z 16017KT 34/12 A2979 RMK A01 T03400115  RH  026%=      5-min Rain = 0
KSC1 172303Z 17015KT 34/12 A2979 RMK A01 T03400116  RH  026%=      5-min Rain = 0
KSC1 172304Z 16017G22KT 34/12 A2979 RMK A01 T03390118  RH  026%=      5-min Rain = 0
KSC1 172305Z 16016KT 34/12 A2979 RMK A01 T03380120  RH  027%=      5-min Rain = 0
KSC1 172306Z 16012KT 34/12 A2979 RMK A01 T03370122  RH  027%=      5-min Rain = 0
KSC1 172307Z 16015KT 34/12 A2979 RMK A01 T03360123  RH  027%=      5-min Rain = 0
KSC1 172308Z 16014KT 34/12 A2979 RMK A01 T03350123  RH  028%=      5-min Rain = 0
KSC1 172309Z 17017KT 33/12 A2979 RMK A01 T03340123  RH  028%=      5-min Rain = 0
KSC1 172310Z 17016KT 33/12 A2979 RMK A01 T03340122  RH  028%=      5-min Rain = 0
KSC1 172311Z 17013KT 33/12 A2978 RMK A01 T03330121  RH  028%=      5-min Rain = 0
KSC1 172312Z 16011KT 33/12 A2978 RMK A01 T03320122  RH  028%=      5-min Rain = 0
KSC1 172313Z 16014KT 33/12 A2978 RMK A01 T03320122  RH  028%=      5-min Rain = 0
KSC1 172314Z 16013KT 33/12 A2978 RMK A01 T03320121  RH  028%=      5-min Rain = 0
KSC1 172315Z 16015KT 33/12 A2978 RMK A01 T03320121  RH  028%=      5-min Rain = 0
KSC1 172316Z 16011KT 33/12 A2978 RMK A01 T03320121  RH  028%=      5-min Rain = 0
KSC1 172317Z 16012KT 33/12 A2978 RMK A01 T03320121  RH  028%=      5-min Rain = 0
KSC1 172318Z 15010G15KT 33/12 A2978 RMK A01 T03310122  RH  028%=      5-min Rain = 0
KSC1 172319Z 16012KT 33/12 A2978 RMK A01 T03310122  RH  028%=      5-min Rain = 0
KSC1 172320Z 15012KT 33/12 A2978 RMK A01 T03310122  RH  028%=      5-min Rain = 0
KSC1 172321Z 15013KT 33/12 A2978 RMK A01 T03310121  RH  028%=      5-min Rain = 0
KSC1 172322Z 16014G19KT 33/12 A2978 RMK A01 T03310121  RH  028%=      5-min Rain = 0
KSC1 172323Z 16014G19KT 33/12 A2978 RMK A01 T03310120  RH  028%=      5-min Rain = 0
KSC1 172324Z 16012G17KT 33/12 A2978 RMK A01 T03300120  RH  028%=      5-min Rain = 0
KSC1 172325Z 16013KT 33/12 A2978 RMK A01 T03300120  RH  028%=      5-min Rain = 0
KSC1 172326Z 16014KT 33/12 A2978 RMK A01 T03310120  RH  028%=      5-min Rain = 0
KSC1 172327Z 16014G19KT 33/12 A2978 RMK A01 T03300121  RH  028%=      5-min Rain = 0
KSC1 172328Z 16015KT 33/12 A2978 RMK A01 T03300121  RH  028%=      5-min Rain = 0
KSC1 172329Z 15013G19KT 33/12 A2978 RMK A01 T03300120  RH  028%=      5-min Rain = 0
KSC1 172330Z 16011KT 33/12 A2978 RMK A01 T03300121  RH  028%=      5-min Rain = 0
KSC1 172331Z 16010KT 33/12 A2978 RMK A01 T03300122  RH  028%=      5-min Rain = 0
KSC1 172332Z 16013KT 33/12 A2978 RMK A01 T03300122  RH  028%=      5-min Rain = 0
KSC1 172333Z 17013KT 33/12 A2978 RMK A01 T03300121  RH  028%=      5-min Rain = 0
KSC1 172334Z 16011KT 33/12 A2978 RMK A01 T03300122  RH  028%=      5-min Rain = 0
KSC1 172335Z 17011G16KT 33/12 A2978 RMK A01 T03300123  RH  028%=      5-min Rain = 0
KSC1 172336Z 17014G19KT 33/12 A2978 RMK A01 T03300122  RH  028%=      5-min Rain = 0
KSC1 172337Z 16014G20KT 33/12 A2978 RMK A01 T03300121  RH  028%=      5-min Rain = 0
KSC1 172338Z 16015G21KT 33/12 A2978 RMK A01 T03300121  RH  028%=      5-min Rain = 0
KSC1 172339Z 16014KT 33/12 A2978 RMK A01 T03310120  RH  028%=      5-min Rain = 0
KSC1 172340Z 16014G19KT 33/12 A2978 RMK A01 T03310120  RH  028%=      5-min Rain = 0
KSC1 172341Z 16014KT 33/12 A2978 RMK A01 T03320120  RH  028%=      5-min Rain = 0
KSC1 172342Z 16011KT 33/12 A2978 RMK A01 T03330121  RH  028%=      5-min Rain = 0
KSC1 172343Z 16014G19KT 33/12 A2978 RMK A01 T03340121  RH  027%=      5-min Rain = 0
KSC1 172344Z 16010KT 34/12 A2978 RMK A01 T03350122  RH  027%=      5-min Rain = 0
KSC1 172345Z 16016KT 34/12 A2978 RMK A01 T03360121  RH  027%=      5-min Rain = 0
KSC1 172346Z 16014KT 34/12 A2978 RMK A01 T03370119  RH  027%=      5-min Rain = 0
KSC1 172347Z 17016G22KT 34/12 A2978 RMK A01 T03370118  RH  026%=      5-min Rain = 0
KSC1 172348Z 17016KT 34/12 A2978 RMK A01 T03390116  RH  026%=      5-min Rain = 0
KSC1 172349Z 17014G19KT 34/12 A2978 RMK A01 T03400115  RH  026%=      5-min Rain = 0
KSC1 172350Z 17017KT 34/12 A2978 RMK A01 T03410115  RH  025%=      5-min Rain = 0
KSC1 172351Z 16016KT 34/11 A2978 RMK A01 T03420113  RH  025%=      5-min Rain = 0
KSC1 172352Z 16018G24KT 34/11 A2978 RMK A01 T03420112  RH  025%=      5-min Rain = 0
KSC1 172353Z 16021G28KT 34/11 A2978 RMK A01 T03430110  RH  024%=      5-min Rain = 0
KSC1 172354Z 17019G24KT 34/11 A2978 RMK A01 T03420110  RH  024%=      5-min Rain = 0
KSC1 172355Z 18014KT 34/11 A2978 RMK A01 T03420111  RH  025%=      5-min Rain = 0
KSC1 172356Z 18014KT 34/11 A2978 RMK A01 T03420112  RH  025%=      5-min Rain = 0
KSC1 172357Z 17014KT 34/11 A2978 RMK A01 T03430114  RH  025%=      5-min Rain = 0
KSC1 172358Z 17013KT 34/11 A2978 RMK A01 T03430114  RH  025%=      5-min Rain = 0
KSC1 172359Z 17014KT 34/12 A2978 RMK A01 T03430115  RH  025%=      5-min Rain = 0
KSC1 180000Z 17018G23KT 34/12 A2978 RMK A01 T03420115  RH  025%=      5-min Rain = 0
KSC1 180001Z 17016KT 34/12 A2978 RMK A01 T03400115  RH  025%=      5-min Rain = 0
KSC1 180002Z 17017KT 34/12 A2978 RMK A01 T03390115  RH  026%=      5-min Rain = 0
KSC1 180003Z 17015G21KT 34/12 A2978 RMK A01 T03380116  RH  026%=      5-min Rain = 0
KSC1 180004Z 17017G24KT 34/12 A2978 RMK A01 T03380116  RH  026%=      5-min Rain = 0
KSC1 180005Z 18016G21KT 34/11 A2978 RMK A01 T03380114  RH  026%=      5-min Rain = 0
KSC1 180006Z 17018G23KT 34/12 A2978 RMK A01 T03380115  RH  026%=      5-min Rain = 0
KSC1 180007Z 16021KT 34/11 A2978 RMK A01 T03370114  RH  026%=      5-min Rain = 0
KSC1 180008Z 16017KT 34/12 A2978 RMK A01 T03350115  RH  026%=      5-min Rain = 0
KSC1 180009Z 16017G22KT 34/12 A2978 RMK A01 T03350116  RH  026%=      5-min Rain = 0
KSC1 180010Z 17016KT 34/12 A2978 RMK A01 T03350117  RH  027%=      5-min Rain = 0
KSC1 180011Z 16017KT 34/12 A2978 RMK A01 T03350117  RH  027%=      5-min Rain = 0
KSC1 180012Z 17014G21KT 34/12 A2978 RMK A01 T03350119  RH  027%=      5-min Rain = 0
KSC1 180013Z 18016G23KT 34/12 A2978 RMK A01 T03350120  RH  027%=      5-min Rain = 0
KSC1 180014Z 17015G22KT 33/12 A2978 RMK A01 T03330119  RH  027%=      5-min Rain = 0
KSC1 180015Z 18016G23KT 33/12 A2978 RMK A01 T03310119  RH  028%=      5-min Rain = 0
KSC1 180016Z 17016G23KT 33/12 A2978 RMK A01 T03290120  RH  028%=      5-min Rain = 0
KSC1 180017Z 18017KT 33/12 A2978 RMK A01 T03280119  RH  028%=      5-min Rain = 0
KSC1 180018Z 17014KT 33/12 A2979 RMK A01 T03270119  RH  028%=      5-min Rain = 0
KSC1 180019Z 17013G18KT 33/12 A2979 RMK A01 T03260119  RH  028%=      5-min Rain = 0
KSC1 180020Z 17017KT 33/12 A2979 RMK A01 T03250117  RH  028%=      5-min Rain = 0
KSC1 180021Z 17015KT 33/12 A2979 RMK A01 T03250117  RH  028%=      5-min Rain = 0
KSC1 180022Z 17011G16KT 32/12 A2979 RMK A01 T03240117  RH  028%=      5-min Rain = 0
KSC1 180023Z 17015KT 32/12 A2979 RMK A01 T03230117  RH  028%=      5-min Rain = 0
KSC1 180024Z 17012G17KT 32/12 A2979 RMK A01 T03230118  RH  028%=      5-min Rain = 0
KSC1 180025Z 17014G19KT 32/12 A2979 RMK A01 T03230117  RH  029%=      5-min Rain = 0
KSC1 180026Z 16012KT 32/12 A2979 RMK A01 T03230118  RH  029%=      5-min Rain = 0
KSC1 180027Z 16013KT 32/12 A2979 RMK A01 T03220118  RH  029%=      5-min Rain = 0
KSC1 180028Z 17016G21KT 32/12 A2979 RMK A01 T03220118  RH  029%=      5-min Rain = 0
KSC1 180029Z 16014KT 32/12 A2979 RMK A01 T03220118  RH  029%=      5-min Rain = 0
KSC1 180030Z 16014G21KT 32/12 A2979 RMK A01 T03220118  RH  029%=      5-min Rain = 0
KSC1 180031Z 17015KT 32/12 A2978 RMK A01 T03220118  RH  029%=      5-min Rain = 0
KSC1 180032Z 16012G17KT 32/12 A2978 RMK A01 T03220117  RH  029%=      5-min Rain = 0
KSC1 180033Z 16013G19KT 32/12 A2978 RMK A01 T03220118  RH  029%=      5-min Rain = 0
KSC1 180034Z 16011G16KT 32/12 A2978 RMK A01 T03220118  RH  029%=      5-min Rain = 0
KSC1 180035Z 17013KT 32/12 A2978 RMK A01 T03220118  RH  029%=      5-min Rain = 0
KSC1 180036Z 15011KT 32/12 A2978 RMK A01 T03220119  RH  029%=      5-min Rain = 0
KSC1 180037Z 16013G19KT 32/12 A2978 RMK A01 T03220118  RH  029%=      5-min Rain = 0
KSC1 180038Z 15014KT 32/12 A2978 RMK A01 T03220119  RH  029%=      5-min Rain = 0
KSC1 180039Z 15013KT 32/12 A2978 RMK A01 T03220118  RH  029%=      5-min Rain = 0
KSC1 180040Z 16014KT 32/12 A2978 RMK A01 T03220118  RH  029%=      5-min Rain = 0
KSC1 180041Z 15017KT 32/12 A2978 RMK A01 T03220118  RH  029%=      5-min Rain = 0
KSC1 180042Z 15012G18KT 32/12 A2977 RMK A01 T03220117  RH  029%=      5-min Rain = 0
KSC1 180043Z 14010KT 32/12 A2977 RMK A01 T03220119  RH  029%=      5-min Rain = 0
KSC1 180044Z 15012KT 32/12 A2977 RMK A01 T03210119  RH  029%=      5-min Rain = 0
KSC1 180045Z 15015G20KT 32/12 A2977 RMK A01 T03210119  RH  029%=      5-min Rain = 0
KSC1 180046Z 15014KT 32/12 A2977 RMK A01 T03210119  RH  029%=      5-min Rain = 0
KSC1 180047Z 14012KT 32/12 A2977 RMK A01 T03210119  RH  029%=      5-min Rain = 0
KSC1 180048Z 15010KT 32/12 A2977 RMK A01 T03210120  RH  029%=      5-min Rain = 0
KSC1 180049Z 15011G16KT 32/12 A2977 RMK A01 T03200120  RH  029%=      5-min Rain = 0
KSC1 180050Z 15011KT 32/12 A2977 RMK A01 T03200121  RH  030%=      5-min Rain = 0
KSC1 180051Z 15011KT 32/12 A2977 RMK A01 T03190121  RH  030%=      5-min Rain = 0
KSC1 180052Z 15012KT 32/12 A2977 RMK A01 T03190120  RH  030%=      5-min Rain = 0
KSC1 180053Z 14012KT 32/12 A2977 RMK A01 T03190121  RH  030%=      5-min Rain = 0
KSC1 180054Z 15009KT 32/12 A2977 RMK A01 T03190121  RH  030%=      5-min Rain = 0
KSC1 180055Z 15012KT 32/12 A2977 RMK A01 T03180121  RH  030%=      5-min Rain = 0
KSC1 180056Z 14009KT 32/12 A2977 RMK A01 T03180122  RH  030%=      5-min Rain = 0
KSC1 180057Z 14008KT 32/12 A2977 RMK A01 T03180122  RH  030%=      5-min Rain = 0
KSC1 180058Z 15011KT 32/12 A2977 RMK A01 T03170123  RH  030%=      5-min Rain = 0
KSC1 180059Z 15012KT 32/12 A2977 RMK A01 T03170123  RH  031%=      5-min Rain = 0
KSC1 180100Z 14011KT 32/12 A2977 RMK A01 T03170123  RH  031%=      5-min Rain = 0
KSC1 180101Z 14012G17KT 32/12 A2977 RMK A01 T03170124  RH  031%=      5-min Rain = 0
KSC1 180102Z 14013G18KT 32/12 A2977 RMK A01 T03170124  RH  031%=      5-min Rain = 0
KSC1 180103Z 15011KT 32/12 A2977 RMK A01 T03170124  RH  031%=      5-min Rain = 0
KSC1 180104Z 14010KT 32/12 A2977 RMK A01 T03170124  RH  031%=      5-min Rain = 0
KSC1 180105Z 15010KT 32/13 A2977 RMK A01 T03170125  RH  031%=      5-min Rain = 0
KSC1 180106Z 14008KT 32/13 A2977 RMK A01 T03170125  RH  031%=      5-min Rain = 0
KSC1 180107Z 15010KT 32/13 A2977 RMK A01 T03170126  RH  031%=      5-min Rain = 0
KSC1 180108Z 14010G17KT 32/13 A2977 RMK A01 T03170126  RH  031%=      5-min Rain = 0
KSC1 180109Z 15010KT 32/13 A2977 RMK A01 T03170127  RH  031%=      5-min Rain = 0
KSC1 180110Z 14009KT 32/13 A2977 RMK A01 T03170127  RH  031%=      5-min Rain = 0
KSC1 180111Z 14009KT 32/13 A2977 RMK A01 T03170127  RH  031%=      5-min Rain = 0
KSC1 180112Z 14008KT 32/13 A2977 RMK A01 T03160127  RH  032%=      5-min Rain = 0
KSC1 180113Z 13009KT 32/13 A2977 RMK A01 T03160128  RH  032%=      5-min Rain = 0
KSC1 180114Z 13010KT 32/13 A2977 RMK A01 T03150128  RH  032%=      5-min Rain = 0
KSC1 180115Z 13011KT 32/13 A2977 RMK A01 T03150128  RH  032%=      5-min Rain = 0
KSC1 180116Z 13010KT 31/13 A2977 RMK A01 T03140128  RH  032%=      5-min Rain = 0
KSC1 180117Z 13008KT 31/13 A2977 RMK A01 T03140129  RH  032%=      5-min Rain = 0
KSC1 180118Z 13008KT 31/13 A2977 RMK A01 T03140129  RH  032%=      5-min Rain = 0
KSC1 180119Z 12012KT 31/13 A2977 RMK A01 T03130130  RH  033%=      5-min Rain = 0
KSC1 180120Z 13009KT 31/13 A2977 RMK A01 T03120130  RH  033%=      5-min Rain = 0
KSC1 180121Z 13008KT 31/13 A2977 RMK A01 T03120130  RH  033%=      5-min Rain = 0
KSC1 180122Z 13008KT 31/13 A2977 RMK A01 T03110131  RH  033%=      5-min Rain = 0
KSC1 180123Z 14008KT 31/13 A2977 RMK A01 T03100131  RH  033%=      5-min Rain = 0
KSC1 180124Z 13006KT 31/13 A2977 RMK A01 T03100131  RH  034%=      5-min Rain = 0
KSC1 180125Z 14007G12KT 31/13 A2977 RMK A01 T03100131  RH  034%=      5-min Rain = 0
KSC1 180126Z 13009KT 31/13 A2977 RMK A01 T03090132  RH  034%=      5-min Rain = 0
KSC1 180127Z 13010KT 31/13 A2977 RMK A01 T03100132  RH  034%=      5-min Rain = 0
KSC1 180128Z 13009KT 31/13 A2977 RMK A01 T03090132  RH  034%=      5-min Rain = 0
KSC1 180129Z 13009KT 31/13 A2977 RMK A01 T03090133  RH  034%=      5-min Rain = 0
KSC1 180130Z 13008KT 31/13 A2977 RMK A01 T03080133  RH  034%=      5-min Rain = 0
KSC1 180131Z 13007KT 31/13 A2977 RMK A01 T03080133  RH  034%=      5-min Rain = 0
KSC1 180132Z 13007KT 31/13 A2977 RMK A01 T03070134  RH  035%=      5-min Rain = 0
KSC1 180133Z 13008KT 31/14 A2977 RMK A01 T03060135  RH  035%=      5-min Rain = 0
KSC1 180134Z 13008KT 31/13 A2977 RMK A01 T03060134  RH  035%=      5-min Rain = 0
KSC1 180135Z 13007KT 31/14 A2977 RMK A01 T03050135  RH  035%=      5-min Rain = 0
KSC1 180136Z 13008KT 31/14 A2977 RMK A01 T03050136  RH  036%=      5-min Rain = 0
KSC1 180137Z 13008KT 30/14 A2977 RMK A01 T03040136  RH  036%=      5-min Rain = 0
KSC1 180138Z 12008KT 30/14 A2977 RMK A01 T03040136  RH  036%=      5-min Rain = 0
KSC1 180139Z 13009KT 30/14 A2977 RMK A01 T03040136  RH  036%=      5-min Rain = 0
KSC1 180140Z 12009G14KT 30/14 A2977 RMK A01 T03040137  RH  036%=      5-min Rain = 0
KSC1 180141Z 12010KT 30/14 A2977 RMK A01 T03040137  RH  036%=      5-min Rain = 0
KSC1 180142Z 12009KT 30/14 A2977 RMK A01 T03030137  RH  036%=      5-min Rain = 0
KSC1 180143Z 12008G13KT 30/14 A2977 RMK A01 T03030137  RH  036%=      5-min Rain = 0
KSC1 180144Z 12009KT 30/14 A2977 RMK A01 T03030137  RH  036%=      5-min Rain = 0
KSC1 180145Z 12008KT 30/14 A2977 RMK A01 T03020138  RH  037%=      5-min Rain = 0
KSC1 180146Z 12008KT 30/14 A2977 RMK A01 T03020138  RH  037%=      5-min Rain = 0
KSC1 180147Z 12007KT 30/14 A2977 RMK A01 T03010138  RH  037%=      5-min Rain = 0
KSC1 180148Z 12008KT 30/14 A2977 RMK A01 T03000138  RH  037%=      5-min Rain = 0
KSC1 180149Z 12007KT 30/14 A2977 RMK A01 T02990139  RH  037%=      5-min Rain = 0
KSC1 180150Z 12008KT 30/14 A2977 RMK A01 T02990139  RH  038%=      5-min Rain = 0
KSC1 180151Z 12007KT 30/14 A2978 RMK A01 T02990139  RH  038%=      5-min Rain = 0
KSC1 180152Z 12008KT 30/14 A2978 RMK A01 T02980139  RH  038%=      5-min Rain = 0
KSC1 180153Z 12007KT 30/14 A2978 RMK A01 T02980139  RH  038%=      5-min Rain = 0
KSC1 180154Z 12008KT 30/14 A2978 RMK A01 T02980139  RH  038%=      5-min Rain = 0
KSC1 180155Z 12007KT 30/14 A2978 RMK A01 T02980139  RH  038%=      5-min Rain = 0
KSC1 180156Z 12009KT 30/14 A2978 RMK A01 T02970139  RH  038%=      5-min Rain = 0
KSC1 180157Z 12007KT 30/14 A2978 RMK A01 T02970140  RH  038%=      5-min Rain = 0
KSC1 180158Z 12009KT 30/14 A2978 RMK A01 T02970140  RH  038%=      5-min Rain = 0
KSC1 180159Z 12008KT 30/14 A2978 RMK A01 T02970140  RH  038%=      5-min Rain = 0
KSC1 180200Z 13008KT 30/14 A2978 RMK A01 T02960140  RH  038%=      5-min Rain = 0
KSC1 180201Z 12008KT 30/14 A2978 RMK A01 T02960140  RH  039%=      5-min Rain = 0
KSC1 180202Z 12008KT 30/14 A2978 RMK A01 T02960140  RH  038%=      5-min Rain = 0
KSC1 180203Z 12008KT 30/14 A2978 RMK A01 T02960141  RH  039%=      5-min Rain = 0
KSC1 180204Z 12007KT 30/14 A2978 RMK A01 T02950140  RH  039%=      5-min Rain = 0
KSC1 180205Z 12007KT 30/14 A2978 RMK A01 T02950141  RH  039%=      5-min Rain = 0
KSC1 180206Z 12008KT 29/14 A2978 RMK A01 T02940140  RH  039%=      5-min Rain = 0
KSC1 180207Z 12007KT 29/14 A2978 RMK A01 T02940141  RH  039%=      5-min Rain = 0
KSC1 180208Z 12008KT 29/14 A2978 RMK A01 T02930141  RH  039%=      5-min Rain = 0
KSC1 180209Z 12007KT 29/14 A2978 RMK A01 T02930141  RH  039%=      5-min Rain = 0
KSC1 180210Z 12008KT 29/14 A2978 RMK A01 T02930141  RH  039%=      5-min Rain = 0
KSC1 180211Z 12008KT 29/14 A2978 RMK A01 T02930141  RH  039%=      5-min Rain = 0
KSC1 180212Z 12008KT 29/14 A2978 RMK A01 T02930142  RH  040%=      5-min Rain = 0
KSC1 180213Z 13008KT 29/14 A2978 RMK A01 T02920142  RH  040%=      5-min Rain = 0
KSC1 180214Z 13008KT 29/14 A2978 RMK A01 T02910142  RH  040%=      5-min Rain = 0
KSC1 180215Z 13008KT 29/14 A2978 RMK A01 T02910142  RH  040%=      5-min Rain = 0
KSC1 180216Z 13007KT 29/14 A2978 RMK A01 T02910142  RH  040%=      5-min Rain = 0
KSC1 180217Z 13007KT 29/14 A2978 RMK A01 T02910142  RH  040%=      5-min Rain = 0
KSC1 180218Z 13008KT 29/14 A2978 RMK A01 T02910142  RH  040%=      5-min Rain = 0
KSC1 180219Z 13008KT 29/14 A2978 RMK A01 T02910142  RH  040%=      5-min Rain = 0
KSC1 180220Z 14007KT 29/14 A2978 RMK A01 T02910142  RH  040%=      5-min Rain = 0
KSC1 180221Z 13006KT 29/14 A2978 RMK A01 T02910142  RH  040%=      5-min Rain = 0
KSC1 180222Z 13007KT 29/14 A2978 RMK A01 T02900142  RH  040%=      5-min Rain = 0
KSC1 180223Z 13007KT 29/14 A2978 RMK A01 T02890142  RH  041%=      5-min Rain = 0
KSC1 180224Z 13006KT 29/14 A2978 RMK A01 T02890142  RH  041%=      5-min Rain = 0
KSC1 180225Z 13007KT 29/14 A2978 RMK A01 T02890142  RH  041%=      5-min Rain = 0
KSC1 180226Z 13007KT 29/14 A2978 RMK A01 T02880143  RH  041%=      5-min Rain = 0
KSC1 180227Z 13007KT 29/14 A2978 RMK A01 T02880142  RH  041%=      5-min Rain = 0
KSC1 180228Z 13008KT 29/14 A2978 RMK A01 T02870143  RH  041%=      5-min Rain = 0
KSC1 180229Z 13006KT 29/14 A2979 RMK A01 T02870143  RH  041%=      5-min Rain = 0
KSC1 180230Z 13008KT 29/14 A2979 RMK A01 T02870143  RH  041%=      5-min Rain = 0
KSC1 180231Z 13007KT 29/14 A2979 RMK A01 T02860143  RH  041%=      5-min Rain = 0
KSC1 180232Z 13007KT 29/14 A2979 RMK A01 T02860143  RH  042%=      5-min Rain = 0
KSC1 180233Z 13007KT 29/14 A2979 RMK A01 T02860143  RH  042%=      5-min Rain = 0
KSC1 180234Z 13006KT 29/14 A2979 RMK A01 T02850143  RH  042%=      5-min Rain = 0
KSC1 180235Z 13007KT 29/14 A2979 RMK A01 T02850143  RH  042%=      5-min Rain = 0
KSC1 180236Z 13006KT 29/14 A2979 RMK A01 T02850143  RH  042%=      5-min Rain = 0
KSC1 180237Z 13006KT 29/14 A2979 RMK A01 T02850143  RH  042%=      5-min Rain = 0
KSC1 180238Z 12007KT 28/14 A2979 RMK A01 T02840143  RH  042%=      5-min Rain = 0
KSC1 180239Z 13006KT 28/14 A2979 RMK A01 T02830143  RH  042%=      5-min Rain = 0
KSC1 180240Z 13007KT 28/14 A2979 RMK A01 T02820144  RH  043%=      5-min Rain = 0
KSC1 180241Z 13006KT 28/14 A2979 RMK A01 T02820143  RH  043%=      5-min Rain = 0
KSC1 180242Z 13007KT 28/14 A2979 RMK A01 T02820143  RH  043%=      5-min Rain = 0
KSC1 180243Z 13006KT 28/14 A2979 RMK A01 T02820143  RH  043%=      5-min Rain = 0
KSC1 180244Z 13006KT 28/14 A2979 RMK A01 T02820143  RH  042%=      5-min Rain = 0
KSC1 180245Z 13006KT 28/14 A2979 RMK A01 T02820143  RH  042%=      5-min Rain = 0
KSC1 180246Z 13006KT 28/14 A2979 RMK A01 T02820142  RH  042%=      5-min Rain = 0
KSC1 180247Z 14005KT 28/14 A2979 RMK A01 T02820142  RH  042%=      5-min Rain = 0
KSC1 180248Z 14005KT 28/14 A2979 RMK A01 T02820142  RH  042%=      5-min Rain = 0
KSC1 180249Z 14007KT 28/14 A2979 RMK A01 T02820143  RH  042%=      5-min Rain = 0
KSC1 180250Z 14007KT 28/14 A2979 RMK A01 T02830143  RH  042%=      5-min Rain = 0
KSC1 180251Z 14008KT 28/14 A298 RMK A01 T02830142  RH  042%=      5-min Rain = 0
KSC1 180252Z 14008KT 28/14 A298 RMK A01 T02830142  RH  042%=      5-min Rain = 0
KSC1 180253Z 13006KT 28/14 A298 RMK A01 T02830143  RH  042%=      5-min Rain = 0
KSC1 180254Z 14007KT 28/14 A298 RMK A01 T02830143  RH  042%=      5-min Rain = 0
KSC1 180255Z 14007KT 28/14 A298 RMK A01 T02830143  RH  043%=      5-min Rain = 0
KSC1 180256Z 13008KT 28/14 A298 RMK A01 T02820143  RH  043%=      5-min Rain = 0
KSC1 180257Z 13008KT 28/14 A298 RMK A01 T02820143  RH  042%=      5-min Rain = 0
KSC1 180258Z 14008KT 28/14 A298 RMK A01 T02830143  RH  042%=      5-min Rain = 0
KSC1 180259Z 13007KT 28/14 A298 RMK A01 T02830143  RH  042%=      5-min Rain = 0
KSC1 180300Z 13007KT 28/14 A298 RMK A01 T02830143  RH  042%=      5-min Rain = 0
KSC1 180301Z 13008KT 28/14 A298 RMK A01 T02830144  RH  043%=      5-min Rain = 0
KSC1 180302Z 14008KT 28/14 A298 RMK A01 T02830143  RH  042%=      5-min Rain = 0
KSC1 180303Z 14009KT 28/14 A298 RMK A01 T02830143  RH  042%=      5-min Rain = 0
KSC1 180304Z 14008KT 28/14 A298 RMK A01 T02830143  RH  042%=      5-min Rain = 0
KSC1 180305Z 14007KT 28/14 A298 RMK A01 T02830144  RH  042%=      5-min Rain = 0
KSC1 180306Z 14007KT 28/14 A298 RMK A01 T02830144  RH  043%=      5-min Rain = 0
KSC1 180307Z 14008KT 28/14 A298 RMK A01 T02820144  RH  043%=      5-min Rain = 0
KSC1 180308Z 15007KT 28/14 A298 RMK A01 T02820144  RH  043%=      5-min Rain = 0
KSC1 180309Z 14009KT 28/14 A2981 RMK A01 T02820144  RH  043%=      5-min Rain = 0
KSC1 180310Z 14008KT 28/15 A2981 RMK A01 T02820145  RH  043%=      5-min Rain = 0
KSC1 180311Z 14008KT 28/14 A2981 RMK A01 T02820144  RH  043%=      5-min Rain = 0
KSC1 180312Z 15007KT 28/14 A2981 RMK A01 T02820144  RH  043%=      5-min Rain = 0
KSC1 180313Z 15008KT 28/15 A2981 RMK A01 T02820145  RH  043%=      5-min Rain = 0
KSC1 180314Z 14005KT 28/15 A2981 RMK A01 T02820145  RH  043%=      5-min Rain = 0
KSC1 180315Z 15010KT 28/15 A2981 RMK A01 T02810145  RH  043%=      5-min Rain = 0
KSC1 180316Z 15008KT 28/14 A2981 RMK A01 T02800144  RH  043%=      5-min Rain = 0
KSC1 180317Z 15008KT 28/14 A2981 RMK A01 T02800144  RH  043%=      5-min Rain = 0
KSC1 180318Z 15008KT 28/15 A2981 RMK A01 T02800145  RH  043%=      5-min Rain = 0
KSC1 180319Z 15007KT 28/15 A2981 RMK A01 T02800145  RH  044%=      5-min Rain = 0
KSC1 180320Z 14007KT 28/15 A2981 RMK A01 T02790145  RH  044%=      5-min Rain = 0
KSC1 180321Z 14007KT 28/15 A2981 RMK A01 T02790145  RH  044%=      5-min Rain = 0
KSC1 180322Z 15007KT 28/15 A2981 RMK A01 T02780145  RH  044%=      5-min Rain = 0
KSC1 180323Z 15006KT 28/15 A2981 RMK A01 T02770145  RH  044%=      5-min Rain = 0
KSC1 180324Z 15010KT 28/15 A2981 RMK A01 T02770145  RH  045%=      5-min Rain = 0
KSC1 180325Z 14007KT 28/15 A2981 RMK A01 T02770145  RH  044%=      5-min Rain = 0
KSC1 180326Z 14007KT 28/15 A2981 RMK A01 T02770145  RH  045%=      5-min Rain = 0
KSC1 180327Z 14008KT 28/15 A2981 RMK A01 T02770145  RH  045%=      5-min Rain = 0
KSC1 180328Z 15007KT 28/15 A2981 RMK A01 T02760145  RH  045%=      5-min Rain = 0
KSC1 180329Z 15008KT 28/15 A2981 RMK A01 T02770145  RH  045%=      5-min Rain = 0
KSC1 180330Z 14009KT 28/15 A2981 RMK A01 T02770145  RH  044%=      5-min Rain = 0
KSC1 180331Z 14008KT 28/15 A2981 RMK A01 T02770145  RH  044%=      5-min Rain = 0
KSC1 180332Z 15008KT 28/14 A2981 RMK A01 T02770144  RH  044%=      5-min Rain = 0
KSC1 180333Z 15008KT 28/14 A2981 RMK A01 T02770144  RH  044%=      5-min Rain = 0
KSC1 180334Z 15009KT 28/14 A2981 RMK A01 T02770144  RH  044%=      5-min Rain = 0
KSC1 180335Z 15009KT 28/14 A2981 RMK A01 T02770144  RH  044%=      5-min Rain = 0
KSC1 180336Z 15009KT 28/14 A2981 RMK A01 T02770144  RH  044%=      5-min Rain = 0
KSC1 180337Z 14009KT 28/14 A2981 RMK A01 T02760144  RH  044%=      5-min Rain = 0
KSC1 180338Z 15009KT 28/14 A2981 RMK A01 T02760144  RH  044%=      5-min Rain = 0
KSC1 180339Z 15009KT 28/14 A2981 RMK A01 T02760144  RH  044%=      5-min Rain = 0
KSC1 180340Z 15010KT 28/14 A2981 RMK A01 T02760143  RH  044%=      5-min Rain = 0
KSC1 180341Z 15008KT 28/14 A2982 RMK A01 T02770142  RH  044%=      5-min Rain = 0
KSC1 180342Z 15010KT 28/14 A2982 RMK A01 T02770142  RH  044%=      5-min Rain = 0
KSC1 180343Z 15008KT 28/14 A2982 RMK A01 T02770143  RH  044%=      5-min Rain = 0
KSC1 180344Z 15009KT 28/14 A2982 RMK A01 T02760143  RH  044%=      5-min Rain = 0
KSC1 180345Z 15010KT 28/14 A2982 RMK A01 T02760142  RH  044%=      5-min Rain = 0
KSC1 180346Z 16009KT 28/14 A2982 RMK A01 T02760142  RH  044%=      5-min Rain = 0
KSC1 180347Z 15008KT 28/14 A2982 RMK A01 T02760143  RH  044%=      5-min Rain = 0
KSC1 180348Z 16009KT 28/14 A2982 RMK A01 T02750143  RH  044%=      5-min Rain = 0
KSC1 180349Z 16008KT 27/14 A2982 RMK A01 T02740143  RH  044%=      5-min Rain = 0
KSC1 180350Z 15008KT 27/14 A2982 RMK A01 T02740142  RH  044%=      5-min Rain = 0
KSC1 180351Z 16007KT 27/14 A2982 RMK A01 T02730142  RH  045%=      5-min Rain = 0
KSC1 180352Z 16008KT 27/14 A2982 RMK A01 T02730142  RH  045%=      5-min Rain = 0
KSC1 180353Z 16008KT 27/14 A2982 RMK A01 T02720140  RH  044%=      5-min Rain = 0
KSC1 180354Z 16007KT 27/14 A2982 RMK A01 T02720139  RH  044%=      5-min Rain = 0
KSC1 180355Z 16008KT 27/14 A2982 RMK A01 T02720136  RH  043%=      5-min Rain = 0
KSC1 180356Z 16009KT 27/13 A2983 RMK A01 T02720134  RH  043%=      5-min Rain = 0
KSC1 180357Z 15009KT 27/13 A2983 RMK A01 T02720133  RH  042%=      5-min Rain = 0
KSC1 180358Z 16007KT 27/13 A2983 RMK A01 T02730132  RH  042%=      5-min Rain = 0
KSC1 180359Z 16009KT 27/13 A2983 RMK A01 T02720131  RH  042%=      5-min Rain = 0
KSC1 180400Z 16008KT 27/13 A2983 RMK A01 T02730128  RH  041%=      5-min Rain = 0
KSC1 180401Z 16008KT 27/13 A2983 RMK A01 T02730125  RH  040%=      5-min Rain = 0
KSC1 180402Z 16008KT 27/13 A2983 RMK A01 T02730125  RH  040%=      5-min Rain = 0
KSC1 180403Z 16007KT 27/12 A2983 RMK A01 T02730122  RH  039%=      5-min Rain = 0
KSC1 180404Z 16006KT 27/12 A2983 RMK A01 T02730123  RH  039%=      5-min Rain = 0
KSC1 180405Z 16008KT 27/12 A2983 RMK A01 T02730122  RH  039%=      5-min Rain = 0
KSC1 180406Z 16008KT 27/12 A2983 RMK A01 T02730121  RH  039%=      5-min Rain = 0
KSC1 180407Z 16007KT 27/12 A2983 RMK A01 T02730120  RH  039%=      5-min Rain = 0
KSC1 180408Z 16008KT 27/12 A2983 RMK A01 T02730119  RH  038%=      5-min Rain = 0
KSC1 180409Z 16009KT 27/12 A2983 RMK A01 T02730118  RH  038%=      5-min Rain = 0
KSC1 180410Z 15009KT 27/12 A2983 RMK A01 T02730116  RH  038%=      5-min Rain = 0
KSC1 180411Z 15008KT 27/12 A2983 RMK A01 T02730115  RH  037%=      5-min Rain = 0
KSC1 180412Z 15008KT 27/11 A2984 RMK A01 T02730113  RH  037%=      5-min Rain = 0
KSC1 180413Z 16006KT 27/11 A2984 RMK A01 T02740113  RH  037%=      5-min Rain = 0
KSC1 180414Z 15008KT 27/11 A2984 RMK A01 T02740111  RH  036%=      5-min Rain = 0
KSC1 180415Z 15007KT 27/11 A2984 RMK A01 T02740110  RH  036%=      5-min Rain = 0
KSC1 180416Z 15006KT 27/11 A2984 RMK A01 T02740111  RH  036%=      5-min Rain = 0
KSC1 180417Z 15004KT 27/11 A2984 RMK A01 T02740111  RH  036%=      5-min Rain = 0
KSC1 180418Z 13004KT 27/11 A2984 RMK A01 T02740112  RH  036%=      5-min Rain = 0
KSC1 180419Z 13005KT 27/11 A2984 RMK A01 T02740112  RH  037%=      5-min Rain = 0
KSC1 180420Z 12004KT 27/11 A2984 RMK A01 T02730113  RH  037%=      5-min Rain = 0
KSC1 180421Z 12004KT 27/11 A2984 RMK A01 T02730113  RH  037%=      5-min Rain = 0
KSC1 180422Z 12003KT 27/11 A2984 RMK A01 T02720114  RH  037%=      5-min Rain = 0
KSC1 180423Z 09005KT 27/12 A2984 RMK A01 T02720115  RH  038%=      5-min Rain = 0
KSC1 180424Z 09004KT 27/12 A2984 RMK A01 T02710116  RH  038%=      5-min Rain = 0
KSC1 180425Z 11006KT 27/12 A2984 RMK A01 T02710117  RH  038%=      5-min Rain = 0
KSC1 180426Z 10006KT 27/11 A2984 RMK A01 T02710114  RH  038%=      5-min Rain = 0
KSC1 180427Z 10005KT 27/12 A2985 RMK A01 T02710117  RH  038%=      5-min Rain = 0
KSC1 180428Z 09005KT 27/12 A2985 RMK A01 T02700117  RH  038%=      5-min Rain = 0
KSC1 180429Z 09005KT 27/12 A2985 RMK A01 T02700118  RH  039%=      5-min Rain = 0
KSC1 180430Z 08004KT 27/12 A2985 RMK A01 T02690119  RH  039%=      5-min Rain = 0
KSC1 180431Z 07006KT 27/12 A2985 RMK A01 T02680119  RH  039%=      5-min Rain = 0
KSC1 180432Z 06007KT 27/12 A2985 RMK A01 T02680119  RH  040%=      5-min Rain = 0
KSC1 180433Z 06007KT 27/12 A2985 RMK A01 T02680122  RH  040%=      5-min Rain = 0
KSC1 180434Z 06007KT 27/12 A2985 RMK A01 T02670124  RH  041%=      5-min Rain = 0
KSC1 180435Z 06007KT 27/13 A2985 RMK A01 T02660125  RH  041%=      5-min Rain = 0
KSC1 180436Z 06006KT 27/13 A2985 RMK A01 T02660126  RH  042%=      5-min Rain = 0
KSC1 180437Z 06006KT 27/13 A2985 RMK A01 T02650125  RH  042%=      5-min Rain = 0
KSC1 180438Z 05008KT 27/13 A2985 RMK A01 T02650126  RH  042%=      5-min Rain = 0
KSC1 180439Z 05008KT 26/13 A2985 RMK A01 T02640128  RH  043%=      5-min Rain = 0
KSC1 180440Z 05009KT 26/13 A2985 RMK A01 T02640130  RH  043%=      5-min Rain = 0
KSC1 180441Z 05010KT 26/13 A2985 RMK A01 T02640131  RH  044%=      5-min Rain = 0
KSC1 180442Z 05014G20KT 26/13 A2985 RMK A01 T02640133  RH  044%=      5-min Rain = 0
KSC1 180443Z 05012KT 27/13 A2985 RMK A01 T02650134  RH  044%=      5-min Rain = 0
KSC1 180444Z 05013KT 27/13 A2985 RMK A01 T02670134  RH  044%=      5-min Rain = 0
KSC1 180445Z 04012KT 27/13 A2985 RMK A01 T02680134  RH  043%=      5-min Rain = 0
KSC1 180446Z 04012G17KT 27/13 A2985 RMK A01 T02690132  RH  043%=      5-min Rain = 0
KSC1 180447Z 05013KT 27/13 A2985 RMK A01 T02690133  RH  043%=      5-min Rain = 0
KSC1 180448Z 06011KT 27/13 A2985 RMK A01 T02700131  RH  042%=      5-min Rain = 0
KSC1 180449Z 06011KT 27/13 A2986 RMK A01 T02710132  RH  042%=      5-min Rain = 0
KSC1 180450Z 06013KT 27/13 A2986 RMK A01 T02710133  RH  043%=      5-min Rain = 0
KSC1 180451Z 07012KT 27/13 A2986 RMK A01 T02720133  RH  042%=      5-min Rain = 0
KSC1 180452Z 08011KT 27/13 A2986 RMK A01 T02730132  RH  042%=      5-min Rain = 0
KSC1 180453Z 08009KT 27/13 A2986 RMK A01 T02740134  RH  042%=      5-min Rain = 0
KSC1 180454Z 08008KT 27/13 A2986 RMK A01 T02730133  RH  042%=      5-min Rain = 0
KSC1 180455Z 09009KT 27/14 A2986 RMK A01 T02740135  RH  042%=      5-min Rain = 0
KSC1 180456Z 09008KT 27/14 A2986 RMK A01 T02740138  RH  043%=      5-min Rain = 0
KSC1 180457Z 08008KT 27/14 A2986 RMK A01 T02740139  RH  043%=      5-min Rain = 0
KSC1 180458Z 09008KT 27/14 A2986 RMK A01 T02740140  RH  044%=      5-min Rain = 0
KSC1 180459Z 09008KT 27/14 A2985 RMK A01 T02730141  RH  044%=      5-min Rain = 0

Page generated in 0.105 seconds.